Wetterdaten: Sonntag, 12.05.2019
Datum Zeit Temp. Aussen Temp. o. S. +5cm Feuchte Auss Luftdruck Regen Sonnenschein Regendauer Solar Windben Empfang
12.05.2019 00:00 8,3 C 7,2 C 6,7 C 75 % 1023,0 hPa 0,0 l/m 0 min 0 min 0 W/m 16,1 km/h (3 Bft) 97,87 %
12.05.2019 00:02 8,2 C 6,7 C 6,7 C 74 % 1022,9 hPa 0,0 l/m 0 min 0 min 0 W/m 6,4 km/h (2 Bft) 97,06 %
12.05.2019 00:04 8,2 C 6,7 C 6,7 C 75 % 1023,0 hPa 0,0 l/m 0 min 0 min 0 W/m 6,4 km/h (2 Bft) 97,87 %
12.05.2019 00:07 8,2 C 6,7 C 6,1 C 75 % 1023,0 hPa 0,0 l/m 0 min 0 min 0 W/m 9,7 km/h (2 Bft) 96,34 %
12.05.2019 00:08 8,2 C 6,7 C 6,1 C 75 % 1023,0 hPa 0,0 l/m 0 min 0 min 0 W/m 6,4 km/h (2 Bft) 100,00 %
12.05.2019 00:10 8,1 C 6,7 C 6,1 C 75 % 1023,0 hPa 0,0 l/m 0 min 0 min 0 W/m 12,9 km/h (3 Bft) 97,83 %
12.05.2019 00:12 8,1 C 6,7 C 6,1 C 75 % 1023,1 hPa 0,0 l/m 0 min 0 min 0 W/m 6,4 km/h (2 Bft) 95,74 %
12.05.2019 00:14 8,1 C 6,7 C 6,1 C 75 % 1023,2 hPa 0,0 l/m 0 min 0 min 0 W/m 6,4 km/h (2 Bft) 97,87 %
12.05.2019 00:16 8,0 C 6,7 C 6,1 C 76 % 1023,2 hPa 0,0 l/m 0 min 0 min 0 W/m 6,4 km/h (2 Bft) 97,87 %
12.05.2019 00:18 7,9 C 6,7 C 6,1 C 76 % 1023,2 hPa 0,0 l/m 0 min 0 min 0 W/m 6,4 km/h (2 Bft) 97,87 %
12.05.2019 00:20 7,9 C 6,7 C 6,1 C 76 % 1023,3 hPa 0,0 l/m 0 min 0 min 0 W/m 6,4 km/h (2 Bft) 97,87 %
12.05.2019 00:22 7,9 C 6,7 C 6,1 C 76 % 1023,3 hPa 0,0 l/m 0 min 0 min 0 W/m 6,4 km/h (2 Bft) 95,65 %
12.05.2019 00:24 7,8 C 6,1 C 6,1 C 76 % 1023,3 hPa 0,0 l/m 0 min 0 min 0 W/m 6,4 km/h (2 Bft) 95,74 %
12.05.2019 00:26 7,8 C 6,1 C 6,1 C 76 % 1023,4 hPa 0,0 l/m 0 min 0 min 0 W/m 6,4 km/h (2 Bft) 97,87 %
12.05.2019 00:28 7,8 C 6,1 C 6,1 C 77 % 1023,4 hPa 0,0 l/m 0 min 0 min 0 W/m 9,7 km/h (2 Bft) 97,87 %
12.05.2019 00:30 7,8 C 6,1 C 6,1 C 77 % 1023,4 hPa 0,0 l/m 0 min 0 min 0 W/m 9,7 km/h (2 Bft) 97,87 %
12.05.2019 00:32 7,7 C 6,1 C 6,1 C 77 % 1023,5 hPa 0,0 l/m 0 min 0 min 0 W/m 9,7 km/h (2 Bft) 95,65 %
12.05.2019 00:34 7,7 C 6,1 C 5,6 C 77 % 1023,5 hPa 0,0 l/m 0 min 0 min 0 W/m 6,4 km/h (2 Bft) 97,87 %
12.05.2019 00:36 7,7 C 6,1 C 5,6 C 77 % 1023,6 hPa 0,0 l/m 0 min 0 min 0 W/m 3,2 km/h (1 Bft) 97,87 %
12.05.2019 00:38 7,6 C 6,1 C 5,6 C 77 % 1023,6 hPa 0,0 l/m 0 min 0 min 0 W/m 6,4 km/h (2 Bft) 95,74 %
12.05.2019 00:40 7,6 C 6,1 C 5,6 C 77 % 1023,6 hPa 0,0 l/m 0 min 0 min 0 W/m 6,4 km/h (2 Bft) 95,74 %
12.05.2019 00:42 7,6 C 6,1 C 5,6 C 77 % 1023,6 hPa 0,0 l/m 0 min 0 min 0 W/m 6,4 km/h (2 Bft) 91,49 %
12.05.2019 00:44 7,6 C 5,6 C 5,6 C 78 % 1023,6 hPa 0,0 l/m 0 min 0 min 0 W/m 6,4 km/h (2 Bft) 97,83 %
12.05.2019 00:46 7,5 C 5,6 C 5,6 C 77 % 1023,7 hPa 0,0 l/m 0 min 0 min 0 W/m 6,4 km/h (2 Bft) 97,87 %
12.05.2019 00:48 7,4 C 5,6 C 5,0 C 78 % 1023,7 hPa 0,0 l/m 0 min 0 min 0 W/m 3,2 km/h (1 Bft) 97,87 %
12.05.2019 00:50 7,4 C 5,6 C 5,0 C 78 % 1023,8 hPa 0,0 l/m 0 min 0 min 0 W/m 6,4 km/h (2 Bft) 97,87 %
12.05.2019 00:52 7,4 C 5,6 C 5,0 C 78 % 1023,9 hPa 0,0 l/m 0 min 0 min 0 W/m 3,2 km/h (1 Bft) 97,87 %
12.05.2019 00:54 7,4 C 5,6 C 5,0 C 78 % 1024,0 hPa 0,0 l/m 0 min 0 min 0 W/m 9,7 km/h (2 Bft) 97,87 %
12.05.2019 00:56 7,3 C 5,6 C 5,0 C 78 % 1023,9 hPa 0,0 l/m 0 min 0 min 0 W/m 3,2 km/h (1 Bft) 97,83 %
12.05.2019 00:58 7,3 C 5,6 C 5,0 C 78 % 1023,9 hPa 0,0 l/m 0 min 0 min 0 W/m 6,4 km/h (2 Bft) 95,74 %
12.05.2019 01:00 7,2 C 5,0 C 5,0 C 78 % 1023,9 hPa 0,0 l/m 0 min 0 min 0 W/m 3,2 km/h (1 Bft) 95,74 %
12.05.2019 01:02 7,2 C 5,0 C 5,0 C 78 % 1023,9 hPa 0,0 l/m 0 min 0 min 0 W/m 6,4 km/h (2 Bft) 93,62 %
12.05.2019 01:04 7,1 C 5,0 C 5,0 C 78 % 1024,0 hPa 0,0 l/m 0 min 0 min 0 W/m 16,1 km/h (3 Bft) 95,74 %
12.05.2019 01:06 7,1 C 5,6 C 5,0 C 79 % 1024,0 hPa 0,0 l/m 0 min 0 min 0 W/m 9,7 km/h (2 Bft) 97,87 %
12.05.2019 01:08 7,1 C 5,6 C 5,0 C 79 % 1024,0 hPa 0,0 l/m 0 min 0 min 0 W/m 16,1 km/h (3 Bft) 95,65 %
12.05.2019 01:10 7,0 C 5,6 C 5,0 C 79 % 1024,1 hPa 0,0 l/m 0 min 0 min 0 W/m 12,9 km/h (3 Bft) 95,74 %
12.05.2019 01:12 6,9 C 5,6 C 5,0 C 79 % 1024,1 hPa 0,0 l/m 0 min 0 min 0 W/m 9,7 km/h (2 Bft) 93,62 %
12.05.2019 01:14 6,9 C 5,6 C 5,0 C 79 % 1024,1 hPa 0,0 l/m 0 min 0 min 0 W/m 9,7 km/h (2 Bft) 93,62 %
12.05.2019 01:16 6,8 C 5,6 C 5,0 C 80 % 1024,1 hPa 0,0 l/m 0 min 0 min 0 W/m 6,4 km/h (2 Bft) 93,62 %
12.05.2019 01:18 6,8 C 5,6 C 5,0 C 80 % 1024,1 hPa 0,0 l/m 0 min 0 min 0 W/m 9,7 km/h (2 Bft) 95,74 %
12.05.2019 01:20 6,8 C 5,0 C 5,0 C 80 % 1024,2 hPa 0,0 l/m 0 min 0 min 0 W/m 6,4 km/h (2 Bft) 95,65 %
12.05.2019 01:22 6,8 C 5,0 C 5,0 C 80 % 1024,2 hPa 0,0 l/m 0 min 0 min 0 W/m 6,4 km/h (2 Bft) 95,74 %
12.05.2019 01:24 6,7 C 5,0 C 5,0 C 80 % 1024,3 hPa 0,0 l/m 0 min 0 min 0 W/m 6,4 km/h (2 Bft) 95,74 %
12.05.2019 01:26 6,7 C 5,0 C 4,4 C 80 % 1024,3 hPa 0,0 l/m 0 min 0 min 0 W/m 9,7 km/h (2 Bft) 95,74 %
12.05.2019 01:28 6,7 C 5,0 C 4,4 C 80 % 1024,4 hPa 0,0 l/m 0 min 0 min 0 W/m 6,4 km/h (2 Bft) 95,74 %
12.05.2019 01:30 6,6 C 5,0 C 4,4 C 81 % 1024,4 hPa 0,0 l/m 0 min 0 min 0 W/m 0,0 km/h (0 Bft) 95,74 %
12.05.2019 01:32 6,6 C 5,0 C 4,4 C 81 % 1024,5 hPa 0,0 l/m 0 min 0 min 0 W/m 6,4 km/h (2 Bft) 91,30 %
12.05.2019 01:34 6,5 C 5,0 C 4,4 C 81 % 1024,6 hPa 0,0 l/m 0 min 0 min 0 W/m 3,2 km/h (1 Bft) 95,74 %
12.05.2019 01:36 6,5 C 5,0 C 4,4 C 81 % 1024,6 hPa 0,0 l/m 0 min 0 min 0 W/m 3,2 km/h (1 Bft) 93,62 %
12.05.2019 01:38 6,4 C 5,0 C 4,4 C 81 % 1024,6 hPa 0,0 l/m 0 min 0 min 0 W/m 3,2 km/h (1 Bft) 93,62 %
12.05.2019 01:40 6,4 C 5,0 C 4,4 C 81 % 1024,6 hPa 0,0 l/m 0 min 0 min 0 W/m 3,2 km/h (1 Bft) 95,74 %
12.05.2019 01:42 6,4 C 5,0 C 4,4 C 81 % 1024,7 hPa 0,0 l/m 0 min 0 min 0 W/m 6,4 km/h (2 Bft) 95,65 %
12.05.2019 01:44 6,4 C 5,0 C 4,4 C 81 % 1024,6 hPa 0,0 l/m 0 min 0 min 0 W/m 9,7 km/h (2 Bft) 95,74 %
12.05.2019 01:46 6,4 C 5,0 C 4,4 C 81 % 1024,7 hPa 0,0 l/m 0 min 0 min 0 W/m 6,4 km/h (2 Bft) 97,87 %
12.05.2019 01:48 6,3 C 4,4 C 4,4 C 82 % 1024,7 hPa 0,0 l/m 0 min 0 min 0 W/m 6,4 km/h (2 Bft) 97,87 %
12.05.2019 01:50 6,3 C 4,4 C 4,4 C 81 % 1024,7 hPa 0,0 l/m 0 min 0 min 0 W/m 6,4 km/h (2 Bft) 95,74 %
12.05.2019 01:52 6,2 C 4,4 C 3,9 C 82 % 1024,7 hPa 0,0 l/m 0 min 0 min 0 W/m 6,4 km/h (2 Bft) 95,74 %
12.05.2019 01:54 6,2 C 4,4 C 3,9 C 82 % 1024,7 hPa 0,0 l/m 0 min 0 min 0 W/m 6,4 km/h (2 Bft) 97,83 %
12.05.2019 01:56 6,2 C 4,4 C 3,9 C 82 % 1024,7 hPa 0,0 l/m 0 min 0 min 0 W/m 6,4 km/h (2 Bft) 97,87 %
12.05.2019 01:58 6,1 C 4,4 C 3,9 C 82 % 1024,7 hPa 0,0 l/m 0 min 0 min 0 W/m 9,7 km/h (2 Bft) 97,87 %
12.05.2019 02:00 6,1 C 4,4 C 3,9 C 82 % 1024,7 hPa 0,0 l/m 0 min 0 min 0 W/m 6,4 km/h (2 Bft) 97,87 %
12.05.2019 02:02 6,0 C 4,4 C 3,9 C 82 % 1024,7 hPa 0,0 l/m 0 min 0 min 0 W/m 6,4 km/h (2 Bft) 97,87 %
12.05.2019 02:04 6,0 C 4,4 C 3,9 C 82 % 1024,7 hPa 0,0 l/m 0 min 0 min 0 W/m 6,4 km/h (2 Bft) 97,87 %
12.05.2019 02:06 5,9 C 4,4 C 3,9 C 82 % 1024,9 hPa 0,0 l/m 0 min 0 min 0 W/m 6,4 km/h (2 Bft) 97,83 %
12.05.2019 02:08 5,9 C 4,4 C 3,9 C 82 % 1024,8 hPa 0,0 l/m 0 min 0 min 0 W/m 6,4 km/h (2 Bft) 93,62 %
12.05.2019 02:10 5,9 C 4,4 C 3,9 C 83 % 1024,9 hPa 0,0 l/m 0 min 0 min 0 W/m 6,4 km/h (2 Bft) 100,00 %
12.05.2019 02:12 5,8 C 4,4 C 3,9 C 83 % 1024,8 hPa 0,0 l/m 0 min 0 min 0 W/m 6,4 km/h (2 Bft) 100,00 %
12.05.2019 02:14 5,8 C 4,4 C 3,9 C 83 % 1024,7 hPa 0,0 l/m 0 min 0 min 0 W/m 6,4 km/h (2 Bft) 100,00 %
12.05.2019 02:16 5,8 C 4,4 C 3,9 C 83 % 1024,8 hPa 0,0 l/m 0 min 0 min 0 W/m 3,2 km/h (1 Bft) 100,00 %
12.05.2019 02:18 5,7 C 4,4 C 3,9 C 83 % 1024,7 hPa 0,0 l/m 0 min 0 min 0 W/m 6,4 km/h (2 Bft) 100,00 %
12.05.2019 02:20 5,7 C 3,9 C 3,9 C 83 % 1024,8 hPa 0,0 l/m 0 min 0 min 0 W/m 6,4 km/h (2 Bft) 100,00 %
12.05.2019 02:22 5,7 C 3,9 C 3,9 C 83 % 1024,8 hPa 0,0 l/m 0 min 0 min 0 W/m 6,4 km/h (2 Bft) 100,00 %
12.05.2019 02:24 5,6 C 3,9 C 3,9 C 83 % 1024,9 hPa 0,0 l/m 0 min 0 min 0 W/m 6,4 km/h (2 Bft) 97,87 %
12.05.2019 02:26 5,6 C 3,9 C 3,9 C 83 % 1024,9 hPa 0,0 l/m 0 min 0 min 0 W/m 3,2 km/h (1 Bft) 100,00 %
12.05.2019 02:28 5,6 C 3,9 C 3,9 C 83 % 1024,9 hPa 0,0 l/m 0 min 0 min 0 W/m 6,4 km/h (2 Bft) 100,00 %
12.05.2019 02:30 5,6 C 4,4 C 3,9 C 84 % 1024,9 hPa 0,0 l/m 0 min 0 min 0 W/m 12,9 km/h (3 Bft) 100,00 %
12.05.2019 02:32 5,5 C 4,4 C 3,9 C 84 % 1024,9 hPa 0,0 l/m 0 min 0 min 0 W/m 6,4 km/h (2 Bft) 100,00 %
12.05.2019 02:34 5,5 C 3,9 C 3,9 C 84 % 1025,0 hPa 0,0 l/m 0 min 0 min 0 W/m 6,4 km/h (2 Bft) 100,00 %
12.05.2019 02:36 5,4 C 3,9 C 3,9 C 84 % 1025,1 hPa 0,0 l/m 0 min 0 min 0 W/m 6,4 km/h (2 Bft) 100,00 %
12.05.2019 02:38 5,4 C 3,9 C 3,9 C 84 % 1025,1 hPa 0,0 l/m 0 min 0 min 0 W/m 6,4 km/h (2 Bft) 95,74 %
12.05.2019 02:40 5,4 C 3,9 C 3,9 C 84 % 1025,1 hPa 0,0 l/m 0 min 0 min 0 W/m 3,2 km/h (1 Bft) 100,00 %
12.05.2019 02:42 5,4 C 3,9 C 3,3 C 84 % 1025,1 hPa 0,0 l/m 0 min 0 min 0 W/m 3,2 km/h (1 Bft) 100,00 %
12.05.2019 02:44 5,3 C 3,9 C 3,9 C 84 % 1025,1 hPa 0,0 l/m 0 min 0 min 0 W/m 6,4 km/h (2 Bft) 100,00 %
12.05.2019 02:46 5,3 C 3,9 C 3,3 C 84 % 1025,2 hPa 0,0 l/m 0 min 0 min 0 W/m 3,2 km/h (1 Bft) 100,00 %
12.05.2019 02:48 5,3 C 3,9 C 3,9 C 84 % 1025,2 hPa 0,0 l/m 0 min 0 min 0 W/m 3,2 km/h (1 Bft) 100,00 %
12.05.2019 02:50 5,3 C 3,9 C 3,3 C 84 % 1025,3 hPa 0,0 l/m 0 min 0 min 0 W/m 3,2 km/h (1 Bft) 100,00 %
12.05.2019 02:52 5,2 C 3,9 C 3,3 C 84 % 1025,3 hPa 0,0 l/m 0 min 0 min 0 W/m 3,2 km/h (1 Bft) 100,00 %
12.05.2019 02:54 5,2 C 3,9 C 3,9 C 84 % 1025,4 hPa 0,0 l/m 0 min 0 min 0 W/m 6,4 km/h (2 Bft) 97,87 %
12.05.2019 02:56 5,2 C 3,9 C 3,3 C 85 % 1025,4 hPa 0,0 l/m 0 min 0 min 0 W/m 3,2 km/h (1 Bft) 96,00 %
12.05.2019 02:58 5,2 C 3,9 C 3,3 C 85 % 1025,4 hPa 0,0 l/m 0 min 0 min 0 W/m 3,2 km/h (1 Bft) 97,87 %
12.05.2019 03:00 5,1 C 3,9 C 3,3 C 85 % 1025,4 hPa 0,0 l/m 0 min 0 min 0 W/m 6,4 km/h (2 Bft) 95,74 %
12.05.2019 03:02 5,1 C 3,9 C 3,3 C 85 % 1025,4 hPa 0,0 l/m 0 min 0 min 0 W/m 6,4 km/h (2 Bft) 100,00 %
12.05.2019 03:04 5,1 C 3,9 C 3,3 C 85 % 1025,6 hPa 0,0 l/m 0 min 0 min 0 W/m 3,2 km/h (1 Bft) 97,83 %
12.05.2019 03:06 5,1 C 3,9 C 3,3 C 85 % 1025,5 hPa 0,0 l/m 0 min 0 min 0 W/m 9,7 km/h (2 Bft) 97,87 %
12.05.2019 03:08 5,0 C 3,9 C 3,3 C 85 % 1025,5 hPa 0,0 l/m 0 min 0 min 0 W/m 6,4 km/h (2 Bft) 93,62 %
12.05.2019 03:10 5,0 C 3,9 C 3,3 C 85 % 1025,5 hPa 0,0 l/m 0 min 0 min 0 W/m 3,2 km/h (1 Bft) 97,87 %
12.05.2019 03:12 4,9 C 3,9 C 3,3 C 85 % 1025,6 hPa 0,0 l/m 0 min 0 min 0 W/m 9,7 km/h (2 Bft) 97,87 %
12.05.2019 03:14 4,9 C 3,9 C 3,3 C 85 % 1025,6 hPa 0,0 l/m 0 min 0 min 0 W/m 6,4 km/h (2 Bft) 97,87 %
12.05.2019 03:16 4,9 C 3,9 C 3,3 C 86 % 1025,6 hPa 0,0 l/m 0 min 0 min 0 W/m 3,2 km/h (1 Bft) 97,83 %
12.05.2019 03:18 4,9 C 3,9 C 3,3 C 86 % 1025,6 hPa 0,0 l/m 0 min 0 min 0 W/m 6,4 km/h (2 Bft) 97,87 %
12.05.2019 03:20 4,9 C 3,9 C 3,3 C 86 % 1025,6 hPa 0,0 l/m 0 min 0 min 0 W/m 3,2 km/h (1 Bft) 97,87 %
12.05.2019 03:22 4,9 C 3,3 C 3,3 C 86 % 1025,6 hPa 0,0 l/m 0 min 0 min 0 W/m 3,2 km/h (1 Bft) 93,62 %
12.05.2019 03:24 4,8 C 3,3 C 3,3 C 86 % 1025,6 hPa 0,0 l/m 0 min 0 min 0 W/m 6,4 km/h (2 Bft) 93,62 %
12.05.2019 03:26 4,8 C 3,3 C 3,3 C 86 % 1025,7 hPa 0,0 l/m 0 min 0 min 0 W/m 0,0 km/h (0 Bft) 95,65 %
12.05.2019 03:28 4,8 C 3,3 C 3,3 C 86 % 1025,7 hPa 0,0 l/m 0 min 0 min 0 W/m 3,2 km/h (1 Bft) 97,92 %
12.05.2019 03:30 4,8 C 3,3 C 3,3 C 86 % 1025,8 hPa 0,0 l/m 0 min 0 min 0 W/m 3,2 km/h (1 Bft) 97,83 %
12.05.2019 03:32 4,8 C 3,3 C 3,3 C 86 % 1025,8 hPa 0,0 l/m 0 min 0 min 0 W/m 3,2 km/h (1 Bft) 97,87 %
12.05.2019 03:34 4,7 C 3,3 C 3,3 C 86 % 1025,9 hPa 0,0 l/m 0 min 0 min 0 W/m 6,4 km/h (2 Bft) 97,87 %
12.05.2019 03:36 4,7 C 3,3 C 3,3 C 86 % 1025,9 hPa 0,0 l/m 0 min 0 min 0 W/m 6,4 km/h (2 Bft) 100,00 %
12.05.2019 03:38 4,7 C 3,3 C 3,3 C 86 % 1025,9 hPa 0,0 l/m 0 min 0 min 0 W/m 3,2 km/h (1 Bft) 100,00 %
12.05.2019 03:40 4,7 C 3,9 C 3,3 C 86 % 1025,9 hPa 0,0 l/m 0 min 0 min 0 W/m 6,4 km/h (2 Bft) 100,00 %
12.05.2019 03:42 4,7 C 3,9 C 3,3 C 86 % 1025,9 hPa 0,0 l/m 0 min 0 min 0 W/m 3,2 km/h (1 Bft) 100,00 %
12.05.2019 03:44 4,7 C 3,3 C 3,3 C 86 % 1025,9 hPa 0,0 l/m 0 min 0 min 0 W/m 3,2 km/h (1 Bft) 100,00 %
12.05.2019 03:46 4,6 C 3,9 C 3,3 C 86 % 1026,0 hPa 0,0 l/m 0 min 0 min 0 W/m 3,2 km/h (1 Bft) 100,00 %
12.05.2019 03:48 4,6 C 3,9 C 3,3 C 86 % 1026,0 hPa 0,0 l/m 0 min 0 min 0 W/m 6,4 km/h (2 Bft) 100,00 %
12.05.2019 03:50 4,6 C 3,9 C 3,3 C 86 % 1026,1 hPa 0,0 l/m 0 min 0 min 0 W/m 3,2 km/h (1 Bft) 100,00 %
12.05.2019 03:52 4,6 C 3,9 C 3,3 C 86 % 1026,0 hPa 0,0 l/m 0 min 0 min 0 W/m 3,2 km/h (1 Bft) 100,00 %
12.05.2019 03:54 4,6 C 3,9 C 3,3 C 87 % 1026,1 hPa 0,0 l/m 0 min 0 min 0 W/m 3,2 km/h (1 Bft) 100,00 %
12.05.2019 03:56 4,6 C 3,3 C 3,3 C 87 % 1026,1 hPa 0,0 l/m 0 min 0 min 0 W/m 6,4 km/h (2 Bft) 97,87 %
12.05.2019 03:58 4,6 C 3,9 C 3,3 C 87 % 1026,2 hPa 0,0 l/m 0 min 0 min 0 W/m 0,0 km/h (0 Bft) 100,00 %
12.05.2019 04:00 4,6 C 3,9 C 3,3 C 87 % 1026,3 hPa 0,0 l/m 0 min 0 min 0 W/m 6,4 km/h (2 Bft) 100,00 %
12.05.2019 04:02 4,6 C 3,9 C 3,3 C 87 % 1026,3 hPa 0,0 l/m 0 min 0 min 0 W/m 3,2 km/h (1 Bft) 100,00 %
12.05.2019 04:04 4,6 C 3,9 C 3,3 C 87 % 1026,3 hPa 0,0 l/m 0 min 0 min 0 W/m 3,2 km/h (1 Bft) 100,00 %
12.05.2019 04:06 4,6 C 3,9 C 3,3 C 87 % 1026,3 hPa 0,0 l/m 0 min 0 min 0 W/m 6,4 km/h (2 Bft) 100,00 %
12.05.2019 04:08 4,6 C 3,9 C 3,9 C 87 % 1026,3 hPa 0,0 l/m 0 min 0 min 0 W/m 3,2 km/h (1 Bft) 97,87 %
12.05.2019 04:10 4,5 C 3,9 C 3,9 C 87 % 1026,3 hPa 0,0 l/m 0 min 0 min 0 W/m 3,2 km/h (1 Bft) 100,00 %
12.05.2019 04:12 4,5 C 3,9 C 3,9 C 87 % 1026,3 hPa 0,0 l/m 0 min 0 min 0 W/m 3,2 km/h (1 Bft) 100,00 %
12.05.2019 04:14 4,5 C 3,9 C 3,9 C 87 % 1026,3 hPa 0,0 l/m 0 min 0 min 0 W/m 3,2 km/h (1 Bft) 100,00 %
12.05.2019 04:16 4,5 C 3,9 C 3,9 C 87 % 1026,3 hPa 0,0 l/m 0 min 0 min 0 W/m 9,7 km/h (2 Bft) 100,00 %
12.05.2019 04:18 4,5 C 3,9 C 3,9 C 87 % 1026,3 hPa 0,0 l/m 0 min 0 min 0 W/m 3,2 km/h (1 Bft) 97,87 %
12.05.2019 04:20 4,5 C 3,9 C 3,9 C 87 % 1026,4 hPa 0,0 l/m 0 min 0 min 0 W/m 9,7 km/h (2 Bft) 100,00 %
12.05.2019 04:22 4,5 C 3,9 C 3,9 C 87 % 1026,4 hPa 0,0 l/m 0 min 0 min 0 W/m 6,4 km/h (2 Bft) 100,00 %
12.05.2019 04:24 4,5 C 3,9 C 3,9 C 88 % 1026,4 hPa 0,0 l/m 0 min 0 min 0 W/m 3,2 km/h (1 Bft) 100,00 %
12.05.2019 04:26 4,5 C 3,9 C 3,9 C 88 % 1026,5 hPa 0,0 l/m 0 min 0 min 0 W/m 6,4 km/h (2 Bft) 100,00 %
12.05.2019 04:28 4,5 C 3,9 C 3,9 C 88 % 1026,5 hPa 0,0 l/m 0 min 0 min 0 W/m 3,2 km/h (1 Bft) 100,00 %
12.05.2019 04:30 4,5 C 3,9 C 3,9 C 88 % 1026,5 hPa 0,0 l/m 0 min 0 min 0 W/m 3,2 km/h (1 Bft) 97,87 %
12.05.2019 04:32 4,6 C 3,9 C 3,9 C 88 % 1026,6 hPa 0,0 l/m 0 min 0 min 0 W/m 3,2 km/h (1 Bft) 95,74 %
12.05.2019 04:34 4,6 C 3,9 C 3,9 C 88 % 1026,6 hPa 0,0 l/m 0 min 0 min 0 W/m 3,2 km/h (1 Bft) 97,87 %
12.05.2019 04:36 4,6 C 3,9 C 3,9 C 88 % 1026,7 hPa 0,0 l/m 0 min 0 min 0 W/m 3,2 km/h (1 Bft) 97,87 %
12.05.2019 04:38 4,6 C 3,9 C 3,9 C 88 % 1026,8 hPa 0,0 l/m 0 min 0 min 0 W/m 6,4 km/h (2 Bft) 95,65 %
12.05.2019 04:40 4,6 C 3,9 C 3,9 C 88 % 1026,9 hPa 0,0 l/m 0 min 0 min 0 W/m 3,2 km/h (1 Bft) 95,74 %
12.05.2019 04:42 4,6 C 3,9 C 3,9 C 88 % 1026,9 hPa 0,0 l/m 0 min 0 min 0 W/m 3,2 km/h (1 Bft) 91,49 %
12.05.2019 04:44 4,6 C 3,9 C 3,9 C 88 % 1026,9 hPa 0,0 l/m 0 min 0 min 0 W/m 3,2 km/h (1 Bft) 93,62 %
12.05.2019 04:46 4,6 C 3,9 C 3,9 C 88 % 1026,9 hPa 0,0 l/m 0 min 0 min 0 W/m 6,4 km/h (2 Bft) 91,49 %
12.05.2019 04:48 4,6 C 3,9 C 3,9 C 88 % 1026,9 hPa 0,0 l/m 0 min 0 min 0 W/m 6,4 km/h (2 Bft) 95,65 %
12.05.2019 04:50 4,6 C 3,9 C 3,9 C 88 % 1027,0 hPa 0,0 l/m 0 min 0 min 0 W/m 3,2 km/h (1 Bft) 95,74 %
12.05.2019 04:52 4,6 C 3,9 C 3,9 C 88 % 1027,0 hPa 0,0 l/m 0 min 0 min 0 W/m 3,2 km/h (1 Bft) 95,74 %
12.05.2019 04:54 4,6 C 3,9 C 3,9 C 88 % 1027,0 hPa 0,0 l/m 0 min 0 min 0 W/m 3,2 km/h (1 Bft) 95,74 %
12.05.2019 04:56 4,6 C 3,9 C 3,9 C 88 % 1027,0 hPa 0,0 l/m 0 min 0 min 0 W/m 3,2 km/h (1 Bft) 93,62 %
12.05.2019 04:58 4,6 C 3,9 C 3,9 C 89 % 1027,0 hPa 0,0 l/m 0 min 0 min 0 W/m 9,7 km/h (2 Bft) 93,62 %
12.05.2019 05:00 4,6 C 3,9 C 3,9 C 89 % 1027,0 hPa 0,0 l/m 0 min 0 min 0 W/m 3,2 km/h (1 Bft) 91,30 %
12.05.2019 05:02 4,6 C 4,4 C 3,9 C 89 % 1027,1 hPa 0,0 l/m 0 min 0 min 0 W/m 3,2 km/h (1 Bft) 89,36 %
12.05.2019 05:04 4,6 C 4,4 C 3,9 C 89 % 1027,1 hPa 0,0 l/m 0 min 0 min 0 W/m 0,0 km/h (0 Bft) 93,62 %
12.05.2019 05:05 4,6 C 4,4 C 3,9 C 89 % 1027,1 hPa 0,0 l/m 0 min 0 min 0 W/m 3,2 km/h (1 Bft) 92,98 %
12.05.2019 05:10 4,6 C 4,4 C 3,9 C 89 % 1027,2 hPa 0,0 l/m 0 min 0 min 0 W/m 6,4 km/h (2 Bft) 96,49 %
12.05.2019 05:12 4,7 C 4,4 C 3,9 C 89 % 1027,3 hPa 0,0 l/m 0 min 0 min 0 W/m 3,2 km/h (1 Bft) 97,06 %
12.05.2019 05:14 4,7 C 4,4 C 3,9 C 89 % 1027,3 hPa 0,0 l/m 0 min 0 min 0 W/m 0,0 km/h (0 Bft) 95,74 %
12.05.2019 05:16 4,7 C 4,4 C 3,9 C 89 % 1027,3 hPa 0,0 l/m 0 min 0 min 0 W/m 3,2 km/h (1 Bft) 100,00 %
12.05.2019 05:18 4,7 C 4,4 C 3,9 C 89 % 1027,3 hPa 0,0 l/m 0 min 0 min 0 W/m 3,2 km/h (1 Bft) 97,92 %
12.05.2019 05:20 4,7 C 4,4 C 3,9 C 89 % 1027,3 hPa 0,0 l/m 0 min 0 min 0 W/m 6,4 km/h (2 Bft) 95,74 %
12.05.2019 05:22 4,7 C 4,4 C 3,9 C 89 % 1027,3 hPa 0,0 l/m 0 min 0 min 0 W/m 6,4 km/h (2 Bft) 100,00 %
12.05.2019 05:24 4,7 C 4,4 C 4,4 C 89 % 1027,3 hPa 0,0 l/m 0 min 0 min 0 W/m 6,4 km/h (2 Bft) 100,00 %
12.05.2019 05:26 4,7 C 4,4 C 4,4 C 89 % 1027,4 hPa 0,0 l/m 0 min 0 min 0 W/m 6,4 km/h (2 Bft) 95,74 %
12.05.2019 05:28 4,7 C 4,4 C 4,4 C 89 % 1027,3 hPa 0,0 l/m 0 min 0 min 0 W/m 9,7 km/h (2 Bft) 96,00 %
12.05.2019 05:30 4,7 C 4,4 C 4,4 C 89 % 1027,4 hPa 0,0 l/m 0 min 0 min 0 W/m 6,4 km/h (2 Bft) 93,48 %
12.05.2019 05:32 4,7 C 4,4 C 3,9 C 89 % 1027,4 hPa 0,0 l/m 0 min 0 min 0 W/m 6,4 km/h (2 Bft) 94,00 %
12.05.2019 05:34 4,7 C 4,4 C 3,9 C 89 % 1027,5 hPa 0,0 l/m 0 min 0 min 0 W/m 9,7 km/h (2 Bft) 97,87 %
12.05.2019 05:36 4,7 C 4,4 C 3,9 C 89 % 1027,6 hPa 0,0 l/m 0 min 0 min 0 W/m 6,4 km/h (2 Bft) 97,56 %
12.05.2019 05:38 4,7 C 4,4 C 3,9 C 89 % 1027,6 hPa 0,0 l/m 0 min 0 min 0 W/m 6,4 km/h (2 Bft) 95,74 %
12.05.2019 05:40 4,8 C 4,4 C 3,9 C 89 % 1027,6 hPa 0,0 l/m 0 min 0 min 0 W/m 6,4 km/h (2 Bft) 97,87 %
12.05.2019 05:42 4,8 C 4,4 C 4,4 C 89 % 1027,6 hPa 0,0 l/m 0 min 0 min 0 W/m 6,4 km/h (2 Bft) 97,67 %
12.05.2019 05:44 4,8 C 4,4 C 4,4 C 89 % 1027,7 hPa 0,0 l/m 0 min 0 min 0 W/m 9,7 km/h (2 Bft) 98,00 %
12.05.2019 05:46 4,8 C 4,4 C 4,4 C 89 % 1027,7 hPa 0,0 l/m 0 min 0 min 0 W/m 3,2 km/h (1 Bft) 97,87 %
12.05.2019 05:48 4,8 C 4,4 C 4,4 C 89 % 1027,7 hPa 0,0 l/m 0 min 0 min 0 W/m 6,4 km/h (2 Bft) 100,00 %
12.05.2019 05:50 4,8 C 4,4 C 4,4 C 89 % 1027,8 hPa 0,0 l/m 0 min 0 min 0 W/m 6,4 km/h (2 Bft) 100,00 %
12.05.2019 05:52 4,8 C 4,4 C 4,4 C 89 % 1027,8 hPa 0,0 l/m 0 min 0 min 0 W/m 9,7 km/h (2 Bft) 100,00 %
12.05.2019 05:54 4,8 C 4,4 C 4,4 C 89 % 1027,8 hPa 0,0 l/m 0 min 0 min 0 W/m 9,7 km/h (2 Bft) 100,00 %
12.05.2019 05:56 4,8 C 4,4 C 4,4 C 89 % 1027,9 hPa 0,0 l/m 0 min 0 min 3 W/m 6,4 km/h (2 Bft) 100,00 %
12.05.2019 05:58 4,9 C 4,4 C 4,4 C 89 % 1027,9 hPa 0,0 l/m 0 min 0 min 5 W/m 6,4 km/h (2 Bft) 95,74 %
12.05.2019 06:00 4,9 C 4,4 C 4,4 C 89 % 1027,9 hPa 0,0 l/m 0 min 0 min 5 W/m 6,4 km/h (2 Bft) 100,00 %
12.05.2019 06:02 4,9 C 4,4 C 4,4 C 89 % 1027,9 hPa 0,0 l/m 0 min 0 min 5 W/m 6,4 km/h (2 Bft) 98,18 %
12.05.2019 06:04 4,9 C 4,4 C 4,4 C 89 % 1027,9 hPa 0,0 l/m 0 min 0 min 7 W/m 3,2 km/h (1 Bft) 100,00 %
12.05.2019 06:08 4,9 C 4,4 C 4,4 C 89 % 1028,0 hPa 0,0 l/m 0 min 0 min 7 W/m 6,4 km/h (2 Bft) 100,00 %
12.05.2019 06:10 4,9 C 4,4 C 4,4 C 89 % 1028,1 hPa 0,0 l/m 0 min 0 min 9 W/m 0,0 km/h (0 Bft) 100,00 %
12.05.2019 06:12 5,0 C 4,4 C 4,4 C 89 % 1028,1 hPa 0,0 l/m 0 min 0 min 9 W/m 0,0 km/h (0 Bft) 100,00 %
12.05.2019 06:14 5,0 C 4,4 C 4,4 C 89 % 1028,1 hPa 0,0 l/m 0 min 0 min 10 W/m 6,4 km/h (2 Bft) 100,00 %
12.05.2019 06:16 5,0 C 4,4 C 4,4 C 89 % 1028,1 hPa 0,0 l/m 0 min 0 min 11 W/m 6,4 km/h (2 Bft) 100,00 %
12.05.2019 06:18 5,0 C 5,0 C 4,4 C 89 % 1028,1 hPa 0,0 l/m 0 min 0 min 12 W/m 0,0 km/h (0 Bft) 97,87 %
12.05.2019 06:20 5,0 C 5,0 C 4,4 C 89 % 1028,1 hPa 0,0 l/m 0 min 0 min 14 W/m 3,2 km/h (1 Bft) 100,00 %
12.05.2019 06:22 5,0 C 5,0 C 4,4 C 90 % 1028,1 hPa 0,0 l/m 0 min 0 min 16 W/m 3,2 km/h (1 Bft) 100,00 %
12.05.2019 06:24 5,1 C 5,0 C 4,4 C 90 % 1028,2 hPa 0,0 l/m 0 min 0 min 18 W/m 3,2 km/h (1 Bft) 100,00 %
12.05.2019 06:26 5,1 C 5,0 C 4,4 C 90 % 1028,2 hPa 0,0 l/m 0 min 0 min 20 W/m 6,4 km/h (2 Bft) 98,18 %
12.05.2019 06:28 5,1 C 5,0 C 4,4 C 90 % 1028,2 hPa 0,0 l/m 0 min 0 min 19 W/m 3,2 km/h (1 Bft) 100,00 %
12.05.2019 06:30 5,1 C 5,0 C 4,4 C 90 % 1028,3 hPa 0,0 l/m 0 min 0 min 20 W/m 3,2 km/h (1 Bft) 100,00 %
12.05.2019 06:32 5,1 C 5,0 C 4,4 C 90 % 1028,3 hPa 0,0 l/m 0 min 0 min 24 W/m 3,2 km/h (1 Bft) 100,00 %
12.05.2019 06:34 5,2 C 5,0 C 4,4 C 90 % 1028,4 hPa 0,0 l/m 0 min 0 min 26 W/m 3,2 km/h (1 Bft) 100,00 %
12.05.2019 06:36 5,2 C 5,0 C 5,0 C 90 % 1028,4 hPa 0,0 l/m 0 min 0 min 25 W/m 0,0 km/h (0 Bft) 100,00 %
12.05.2019 06:38 5,2 C 5,0 C 5,0 C 90 % 1028,4 hPa 0,0 l/m 0 min 0 min 24 W/m 0,0 km/h (0 Bft) 100,00 %
12.05.2019 06:40 5,2 C 5,0 C 5,0 C 90 % 1028,4 hPa 0,0 l/m 0 min 0 min 23 W/m 3,2 km/h (1 Bft) 100,00 %
12.05.2019 06:42 5,2 C 5,0 C 5,0 C 90 % 1028,5 hPa 0,0 l/m 0 min 0 min 22 W/m 3,2 km/h (1 Bft) 100,00 %
12.05.2019 06:44 5,2 C 5,0 C 5,0 C 90 % 1028,4 hPa 0,0 l/m 0 min 0 min 20 W/m 3,2 km/h (1 Bft) 100,00 %
12.05.2019 06:46 5,3 C 5,0 C 4,4 C 90 % 1028,4 hPa 0,0 l/m 0 min 0 min 20 W/m 3,2 km/h (1 Bft) 97,92 %
12.05.2019 06:48 5,3 C 5,0 C 4,4 C 90 % 1028,5 hPa 0,0 l/m 0 min 0 min 23 W/m 0,0 km/h (0 Bft) 100,00 %
12.05.2019 06:50 5,3 C 5,0 C 4,4 C 90 % 1028,5 hPa 0,0 l/m 0 min 0 min 29 W/m 6,4 km/h (2 Bft) 98,18 %
12.05.2019 06:52 5,3 C 5,0 C 4,4 C 90 % 1028,6 hPa 0,0 l/m 0 min 0 min 36 W/m 3,2 km/h (1 Bft) 100,00 %
12.05.2019 06:54 5,3 C 5,0 C 4,4 C 90 % 1028,6 hPa 0,0 l/m 0 min 0 min 39 W/m 3,2 km/h (1 Bft) 97,87 %
12.05.2019 06:56 5,3 C 5,0 C 4,4 C 90 % 1028,6 hPa 0,0 l/m 0 min 0 min 48 W/m 3,2 km/h (1 Bft) 97,87 %
12.05.2019 06:58 5,3 C 5,0 C 5,0 C 90 % 1028,6 hPa 0,0 l/m 0 min 0 min 46 W/m 6,4 km/h (2 Bft) 100,00 %
12.05.2019 07:00 5,3 C 5,0 C 5,0 C 90 % 1028,6 hPa 0,0 l/m 0 min 0 min 42 W/m 3,2 km/h (1 Bft) 100,00 %
12.05.2019 07:02 5,3 C 5,0 C 5,0 C 90 % 1028,6 hPa 0,0 l/m 0 min 0 min 41 W/m 3,2 km/h (1 Bft) 97,87 %
12.05.2019 07:04 5,3 C 5,6 C 5,0 C 90 % 1028,6 hPa 0,0 l/m 0 min 0 min 46 W/m 3,2 km/h (1 Bft) 97,87 %
12.05.2019 07:06 5,3 C 5,6 C 5,0 C 90 % 1028,8 hPa 0,0 l/m 0 min 0 min 49 W/m 3,2 km/h (1 Bft) 97,83 %
12.05.2019 07:08 5,4 C 5,6 C 5,0 C 90 % 1028,8 hPa 0,0 l/m 0 min 0 min 51 W/m 3,2 km/h (1 Bft) 100,00 %
12.05.2019 07:10 5,4 C 5,6 C 5,0 C 90 % 1028,8 hPa 0,0 l/m 0 min 0 min 53 W/m 6,4 km/h (2 Bft) 97,87 %
12.05.2019 07:12 5,4 C 5,6 C 5,0 C 90 % 1028,9 hPa 0,0 l/m 0 min 0 min 51 W/m 6,4 km/h (2 Bft) 100,00 %
12.05.2019 07:14 5,4 C 5,6 C 5,0 C 90 % 1028,9 hPa 0,0 l/m 0 min 0 min 43 W/m 6,4 km/h (2 Bft) 95,74 %
12.05.2019 07:16 5,4 C 5,6 C 5,0 C 90 % 1029,0 hPa 0,0 l/m 0 min 0 min 39 W/m 9,7 km/h (2 Bft) 97,14 %
12.05.2019 07:18 5,4 C 5,6 C 5,0 C 90 % 1029,0 hPa 0,0 l/m 0 min 0 min 37 W/m 6,4 km/h (2 Bft) 93,62 %
12.05.2019 07:20 5,4 C 5,6 C 5,0 C 90 % 1029,0 hPa 0,0 l/m 0 min 0 min 35 W/m 9,7 km/h (2 Bft) 92,59 %
12.05.2019 07:22 5,4 C 5,6 C 5,0 C 90 % 1029,2 hPa 0,0 l/m 0 min 0 min 38 W/m 6,4 km/h (2 Bft) 91,49 %
12.05.2019 07:24 5,4 C 5,6 C 5,0 C 90 % 1029,1 hPa 0,0 l/m 0 min 0 min 42 W/m 6,4 km/h (2 Bft) 96,00 %
12.05.2019 07:26 5,5 C 5,6 C 5,0 C 90 % 1029,1 hPa 0,0 l/m 0 min 0 min 44 W/m 6,4 km/h (2 Bft) 95,65 %
12.05.2019 07:28 5,5 C 5,6 C 5,0 C 90 % 1029,2 hPa 0,0 l/m 0 min 0 min 45 W/m 6,4 km/h (2 Bft) 95,74 %
12.05.2019 07:30 5,5 C 5,6 C 5,0 C 90 % 1029,2 hPa 0,0 l/m 0 min 0 min 47 W/m 6,4 km/h (2 Bft) 95,74 %
12.05.2019 07:32 5,6 C 5,6 C 5,0 C 90 % 1029,2 hPa 0,0 l/m 0 min 0 min 49 W/m 6,4 km/h (2 Bft) 95,83 %
12.05.2019 07:34 5,6 C 6,1 C 5,0 C 90 % 1029,3 hPa 0,0 l/m 0 min 0 min 52 W/m 6,4 km/h (2 Bft) 94,44 %
12.05.2019 07:36 5,6 C 6,1 C 5,6 C 90 % 1029,5 hPa 0,0 l/m 0 min 0 min 59 W/m 6,4 km/h (2 Bft) 94,44 %
12.05.2019 07:38 5,6 C 6,1 C 5,6 C 90 % 1029,5 hPa 0,0 l/m 0 min 0 min 67 W/m 9,7 km/h (2 Bft) 95,92 %
12.05.2019 07:40 5,7 C 6,7 C 5,6 C 90 % 1029,4 hPa 0,0 l/m 0 min 0 min 96 W/m 9,7 km/h (2 Bft) 95,74 %
12.05.2019 07:42 5,7 C 7,2 C 6,1 C 91 % 1029,5 hPa 0,0 l/m 0 min 0 min 117 W/m 6,4 km/h (2 Bft) 95,74 %
12.05.2019 07:44 5,7 C 7,2 C 6,7 C 91 % 1029,5 hPa 0,0 l/m 0 min 0 min 117 W/m 9,7 km/h (2 Bft) 95,83 %
12.05.2019 07:46 5,8 C 7,8 C 6,7 C 90 % 1029,5 hPa 0,0 l/m 0 min 0 min 135 W/m 9,7 km/h (2 Bft) 94,29 %
12.05.2019 07:48 5,9 C 8,3 C 7,2 C 90 % 1029,4 hPa 0,0 l/m 2 min 0 min 144 W/m 6,4 km/h (2 Bft) 95,74 %
12.05.2019 07:50 5,9 C 8,3 C 7,2 C 90 % 1029,5 hPa 0,0 l/m 0 min 0 min 128 W/m 9,7 km/h (2 Bft) 97,87 %
12.05.2019 07:52 6,1 C 8,3 C 7,2 C 90 % 1029,6 hPa 0,0 l/m 0 min 0 min 115 W/m 6,4 km/h (2 Bft) 96,30 %
12.05.2019 07:54 6,2 C 8,3 C 7,2 C 91 % 1029,5 hPa 0,0 l/m 0 min 0 min 106 W/m 6,4 km/h (2 Bft) 93,62 %
12.05.2019 07:56 6,2 C 8,3 C 7,2 C 90 % 1029,6 hPa 0,0 l/m 0 min 0 min 98 W/m 6,4 km/h (2 Bft) 98,00 %
12.05.2019 07:58 6,3 C 8,3 C 7,2 C 90 % 1029,6 hPa 0,0 l/m 0 min 0 min 93 W/m 12,9 km/h (3 Bft) 97,87 %
12.05.2019 08:00 6,4 C 8,3 C 7,2 C 90 % 1029,6 hPa 0,0 l/m 0 min 0 min 90 W/m 9,7 km/h (2 Bft) 100,00 %
12.05.2019 08:02 6,4 C 8,3 C 7,2 C 90 % 1029,6 hPa 0,0 l/m 0 min 0 min 81 W/m 6,4 km/h (2 Bft) 100,00 %
12.05.2019 08:04 6,5 C 8,3 C 7,2 C 90 % 1029,5 hPa 0,0 l/m 0 min 0 min 81 W/m 9,7 km/h (2 Bft) 100,00 %
12.05.2019 08:06 6,6 C 8,3 C 7,2 C 89 % 1029,7 hPa 0,0 l/m 0 min 0 min 83 W/m 16,1 km/h (3 Bft) 100,00 %
12.05.2019 08:08 6,6 C 8,3 C 7,2 C 89 % 1029,7 hPa 0,0 l/m 0 min 0 min 80 W/m 6,4 km/h (2 Bft) 100,00 %
12.05.2019 08:10 6,7 C 8,3 C 7,2 C 89 % 1029,7 hPa 0,0 l/m 0 min 0 min 98 W/m 3,2 km/h (1 Bft) 100,00 %
12.05.2019 08:12 6,7 C 8,3 C 7,2 C 89 % 1029,7 hPa 0,0 l/m 0 min 0 min 113 W/m 6,4 km/h (2 Bft) 100,00 %
12.05.2019 08:14 6,8 C 8,9 C 7,2 C 89 % 1029,8 hPa 0,0 l/m 0 min 0 min 117 W/m 9,7 km/h (2 Bft) 97,87 %
12.05.2019 08:16 6,9 C 9,4 C 7,2 C 89 % 1029,7 hPa 0,0 l/m 0 min 0 min 125 W/m 16,1 km/h (3 Bft) 97,87 %
12.05.2019 08:18 6,9 C 10,6 C 7,8 C 88 % 1029,8 hPa 0,0 l/m 0 min 0 min 119 W/m 9,7 km/h (2 Bft) 97,87 %
12.05.2019 08:20 7,0 C 11,7 C 7,8 C 88 % 1029,9 hPa 0,0 l/m 0 min 0 min 137 W/m 6,4 km/h (2 Bft) 96,30 %
12.05.2019 08:22 7,1 C 12,8 C 8,3 C 88 % 1029,9 hPa 0,0 l/m 0 min 0 min 160 W/m 6,4 km/h (2 Bft) 97,87 %
12.05.2019 08:24 7,2 C 13,3 C 8,3 C 88 % 1029,9 hPa 0,0 l/m 0 min 0 min 169 W/m 6,4 km/h (2 Bft) 93,62 %
12.05.2019 08:26 7,3 C 12,2 C 8,3 C 88 % 1030,0 hPa 0,0 l/m 0 min 0 min 130 W/m 9,7 km/h (2 Bft) 97,96 %
12.05.2019 08:28 7,4 C 11,1 C 8,3 C 87 % 1029,9 hPa 0,0 l/m 0 min 0 min 107 W/m 6,4 km/h (2 Bft) 97,87 %
12.05.2019 08:30 7,6 C 12,8 C 8,3 C 87 % 1030,0 hPa 0,0 l/m 0 min 0 min 162 W/m 12,9 km/h (3 Bft) 97,87 %
12.05.2019 08:32 7,7 C 14,4 C 8,3 C 87 % 1029,9 hPa 0,0 l/m 2 min 0 min 210 W/m 9,7 km/h (2 Bft) 97,87 %
12.05.2019 08:34 7,9 C 15,6 C 8,9 C 86 % 1029,9 hPa 0,0 l/m 2 min 0 min 221 W/m 6,4 km/h (2 Bft) 97,87 %
12.05.2019 08:36 8,2 C 17,2 C 8,9 C 86 % 1029,9 hPa 0,0 l/m 2 min 0 min 275 W/m 6,4 km/h (2 Bft) 97,92 %
12.05.2019 08:38 8,4 C 16,7 C 8,9 C 86 % 1029,9 hPa 0,0 l/m 2 min 0 min 277 W/m 9,7 km/h (2 Bft) 97,87 %
12.05.2019 08:40 8,6 C 16,1 C 8,9 C 85 % 1029,9 hPa 0,0 l/m 2 min 0 min 265 W/m 9,7 km/h (2 Bft) 97,83 %
12.05.2019 08:42 8,7 C 14,4 C 8,9 C 84 % 1030,0 hPa 0,0 l/m 0 min 0 min 162 W/m 9,7 km/h (2 Bft) 95,74 %
12.05.2019 08:44 8,9 C 16,1 C 10,6 C 83 % 1030,0 hPa 0,0 l/m 2 min 0 min 273 W/m 9,7 km/h (2 Bft) 94,29 %
12.05.2019 08:46 9,1 C 17,2 C 13,3 C 83 % 1030,1 hPa 0,0 l/m 2 min 0 min 463 W/m 9,7 km/h (2 Bft) 97,87 %
12.05.2019 08:48 9,4 C 18,3 C 15,6 C 82 % 1030,2 hPa 0,0 l/m 2 min 0 min 496 W/m 12,9 km/h (3 Bft) 97,87 %
12.05.2019 08:50 9,7 C 18,9 C 17,2 C 82 % 1030,2 hPa 0,0 l/m 2 min 0 min 523 W/m 9,7 km/h (2 Bft) 98,15 %
12.05.2019 08:52 9,9 C 19,4 C 18,3 C 82 % 1030,1 hPa 0,0 l/m 2 min 0 min 553 W/m 9,7 km/h (2 Bft) 97,87 %
12.05.2019 08:54 10,2 C 19,4 C 18,9 C 81 % 1030,2 hPa 0,0 l/m 2 min 0 min 588 W/m 12,9 km/h (3 Bft) 100,00 %
12.05.2019 08:56 10,4 C 19,4 C 19,4 C 79 % 1030,2 hPa 0,0 l/m 2 min 0 min 622 W/m 9,7 km/h (2 Bft) 100,00 %
12.05.2019 08:58 10,7 C 18,9 C 18,3 C 79 % 1030,3 hPa 0,0 l/m 2 min 0 min 622 W/m 9,7 km/h (2 Bft) 100,00 %
12.05.2019 09:00 10,8 C 17,2 C 16,1 C 77 % 1030,2 hPa 0,0 l/m 2 min 0 min 339 W/m 9,7 km/h (2 Bft) 100,00 %
12.05.2019 09:02 10,9 C 16,1 C 14,4 C 76 % 1030,2 hPa 0,0 l/m 2 min 0 min 250 W/m 6,4 km/h (2 Bft) 100,00 %
12.05.2019 09:04 11,0 C 15,0 C 13,3 C 76 % 1030,3 hPa 0,0 l/m 0 min 0 min 217 W/m 6,4 km/h (2 Bft) 100,00 %
12.05.2019 09:06 11,1 C 14,4 C 13,9 C 75 % 1030,3 hPa 0,0 l/m 2 min 0 min 259 W/m 9,7 km/h (2 Bft) 100,00 %
12.05.2019 09:08 11,2 C 16,1 C 15,0 C 76 % 1030,3 hPa 0,0 l/m 2 min 0 min 429 W/m 19,3 km/h (3 Bft) 100,00 %
12.05.2019 09:10 11,2 C 16,1 C 15,6 C 75 % 1030,4 hPa 0,0 l/m 2 min 0 min 497 W/m 9,7 km/h (2 Bft) 97,87 %
12.05.2019 09:12 11,3 C 15,6 C 14,4 C 75 % 1030,4 hPa 0,0 l/m 2 min 0 min 306 W/m 12,9 km/h (3 Bft) 100,00 %
12.05.2019 09:14 11,3 C 13,9 C 13,3 C 74 % 1030,4 hPa 0,0 l/m 2 min 0 min 288 W/m 19,3 km/h (3 Bft) 100,00 %
12.05.2019 09:16 11,2 C 13,3 C 12,8 C 73 % 1030,4 hPa 0,0 l/m 0 min 0 min 195 W/m 12,9 km/h (3 Bft) 100,00 %
12.05.2019 09:18 11,2 C 13,3 C 12,8 C 73 % 1030,5 hPa 0,0 l/m 2 min 0 min 284 W/m 19,3 km/h (3 Bft) 100,00 %
12.05.2019 09:20 11,1 C 13,9 C 13,3 C 74 % 1030,4 hPa 0,0 l/m 2 min 0 min 280 W/m 9,7 km/h (2 Bft) 100,00 %
12.05.2019 09:22 11,1 C 13,3 C 12,2 C 74 % 1030,4 hPa 0,0 l/m 2 min 0 min 279 W/m 6,4 km/h (2 Bft) 100,00 %
12.05.2019 09:24 11,1 C 13,9 C 13,3 C 74 % 1030,4 hPa 0,0 l/m 0 min 0 min 183 W/m 16,1 km/h (3 Bft) 100,00 %
12.05.2019 09:26 11,1 C 14,4 C 13,9 C 75 % 1030,5 hPa 0,0 l/m 0 min 0 min 183 W/m 9,7 km/h (2 Bft) 95,74 %
12.05.2019 09:28 11,1 C 14,4 C 13,9 C 75 % 1030,5 hPa 0,0 l/m 0 min 0 min 236 W/m 9,7 km/h (2 Bft) 97,83 %
12.05.2019 09:30 11,0 C 13,9 C 13,3 C 74 % 1030,5 hPa 0,0 l/m 0 min 0 min 224 W/m 16,1 km/h (3 Bft) 97,87 %
12.05.2019 09:32 10,9 C 12,2 C 11,7 C 74 % 1030,4 hPa 0,0 l/m 0 min 0 min 107 W/m 16,1 km/h (3 Bft) 97,14 %
12.05.2019 09:34 10,9 C 12,8 C 12,8 C 73 % 1030,4 hPa 0,0 l/m 0 min 0 min 205 W/m 16,1 km/h (3 Bft) 97,87 %
12.05.2019 09:36 10,9 C 12,8 C 12,2 C 73 % 1030,5 hPa 0,0 l/m 2 min 0 min 338 W/m 9,7 km/h (2 Bft) 96,30 %
12.05.2019 09:38 10,8 C 11,7 C 11,1 C 73 % 1030,5 hPa 0,0 l/m 0 min 0 min 56 W/m 9,7 km/h (2 Bft) 97,87 %
12.05.2019 09:40 10,8 C 13,3 C 12,2 C 73 % 1030,5 hPa 0,0 l/m 0 min 0 min 66 W/m 6,4 km/h (2 Bft) 97,87 %
12.05.2019 09:42 10,7 C 13,3 C 12,8 C 74 % 1030,4 hPa 0,0 l/m 0 min 0 min 84 W/m 19,3 km/h (3 Bft) 97,87 %
12.05.2019 09:44 10,7 C 14,4 C 13,9 C 73 % 1030,4 hPa 0,0 l/m 0 min 0 min 104 W/m 12,9 km/h (3 Bft) 98,00 %
12.05.2019 09:46 10,7 C 13,3 C 13,3 C 73 % 1030,5 hPa 0,0 l/m 0 min 0 min 117 W/m 9,7 km/h (2 Bft) 97,92 %
12.05.2019 09:48 10,7 C 13,3 C 12,8 C 74 % 1030,5 hPa 0,0 l/m 0 min 0 min 159 W/m 9,7 km/h (2 Bft) 97,14 %
12.05.2019 09:50 10,7 C 14,4 C 13,9 C 74 % 1030,5 hPa 0,0 l/m 2 min 0 min 411 W/m 6,4 km/h (2 Bft) 97,87 %
12.05.2019 09:52 10,7 C 14,4 C 13,3 C 74 % 1030,6 hPa 0,0 l/m 0 min 0 min 223 W/m 6,4 km/h (2 Bft) 98,15 %
12.05.2019 09:54 10,7 C 16,7 C 16,7 C 75 % 1030,6 hPa 0,0 l/m 2 min 0 min 642 W/m 9,7 km/h (2 Bft) 96,00 %
12.05.2019 09:56 10,8 C 18,9 C 17,8 C 74 % 1030,6 hPa 0,0 l/m 2 min 0 min 716 W/m 9,7 km/h (2 Bft) 97,87 %
12.05.2019 09:58 11,0 C 19,4 C 19,4 C 74 % 1030,6 hPa 0,0 l/m 2 min 0 min 753 W/m 6,4 km/h (2 Bft) 97,83 %
12.05.2019 10:00 11,2 C 20,6 C 20,6 C 73 % 1030,6 hPa 0,0 l/m 2 min 0 min 779 W/m 6,4 km/h (2 Bft) 97,87 %
12.05.2019 10:02 11,4 C 21,1 C 21,1 C 72 % 1030,6 hPa 0,0 l/m 2 min 0 min 772 W/m 6,4 km/h (2 Bft) 97,87 %
12.05.2019 10:04 11,7 C 21,1 C 20,6 C 71 % 1030,7 hPa 0,0 l/m 2 min 0 min 777 W/m 12,9 km/h (3 Bft) 97,87 %
12.05.2019 10:06 11,9 C 20,0 C 20,6 C 70 % 1030,6 hPa 0,0 l/m 2 min 0 min 804 W/m 16,1 km/h (3 Bft) 97,92 %
12.05.2019 10:08 12,1 C 18,3 C 18,3 C 69 % 1030,7 hPa 0,0 l/m 2 min 0 min 428 W/m 6,4 km/h (2 Bft) 97,96 %
12.05.2019 10:10 12,2 C 20,0 C 19,4 C 66 % 1030,6 hPa 0,0 l/m 2 min 0 min 683 W/m 9,7 km/h (2 Bft) 97,83 %
12.05.2019 10:12 12,3 C 18,9 C 18,9 C 66 % 1030,7 hPa 0,0 l/m 2 min 0 min 629 W/m 9,7 km/h (2 Bft) 100,00 %
12.05.2019 10:14 12,5 C 19,4 C 20,0 C 66 % 1030,7 hPa 0,0 l/m 2 min 0 min 875 W/m 12,9 km/h (3 Bft) 100,00 %
12.05.2019 10:16 12,6 C 17,8 C 17,8 C 64 % 1030,7 hPa 0,0 l/m 2 min 0 min 875 W/m 6,4 km/h (2 Bft) 97,83 %
12.05.2019 10:18 12,7 C 17,8 C 17,8 C 64 % 1030,7 hPa 0,0 l/m 0 min 0 min 304 W/m 9,7 km/h (2 Bft) 100,00 %
12.05.2019 10:20 12,7 C 16,1 C 16,1 C 65 % 1030,7 hPa 0,0 l/m 0 min 0 min 300 W/m 16,1 km/h (3 Bft) 100,00 %
12.05.2019 10:22 12,7 C 15,0 C 15,0 C 63 % 1030,6 hPa 0,0 l/m 0 min 0 min 252 W/m 12,9 km/h (3 Bft) 100,00 %
12.05.2019 10:24 12,7 C 16,1 C 16,1 C 64 % 1030,7 hPa 0,0 l/m 0 min 0 min 269 W/m 16,1 km/h (3 Bft) 100,00 %
12.05.2019 10:26 12,7 C 17,8 C 17,8 C 65 % 1030,7 hPa 0,0 l/m 2 min 0 min 697 W/m 6,4 km/h (2 Bft) 100,00 %
12.05.2019 10:28 12,8 C 18,3 C 18,3 C 64 % 1030,7 hPa 0,0 l/m 2 min 0 min 473 W/m 12,9 km/h (3 Bft) 100,00 %
12.05.2019 10:30 12,8 C 17,2 C 17,2 C 64 % 1030,7 hPa 0,0 l/m 2 min 0 min 325 W/m 16,1 km/h (3 Bft) 100,00 %
12.05.2019 10:32 12,9 C 19,4 C 19,4 C 63 % 1030,6 hPa 0,0 l/m 2 min 0 min 443 W/m 9,7 km/h (2 Bft) 100,00 %
12.05.2019 10:34 13,0 C 21,1 C 21,1 C 65 % 1030,7 hPa 0,0 l/m 2 min 0 min 907 W/m 9,7 km/h (2 Bft) 100,00 %
12.05.2019 10:36 13,2 C 22,2 C 22,2 C 65 % 1030,8 hPa 0,0 l/m 2 min 0 min 918 W/m 19,3 km/h (3 Bft) 100,00 %
12.05.2019 10:38 13,2 C 19,4 C 20,0 C 62 % 1030,8 hPa 0,0 l/m 2 min 0 min 937 W/m 19,3 km/h (3 Bft) 100,00 %
12.05.2019 10:40 13,2 C 17,2 C 18,3 C 62 % 1030,8 hPa 0,0 l/m 2 min 0 min 675 W/m 16,1 km/h (3 Bft) 97,87 %
12.05.2019 10:42 13,2 C 16,1 C 16,7 C 63 % 1030,8 hPa 0,0 l/m 0 min 0 min 300 W/m 19,3 km/h (3 Bft) 97,87 %
12.05.2019 10:44 13,1 C 15,0 C 15,0 C 63 % 1030,8 hPa 0,0 l/m 0 min 0 min 253 W/m 16,1 km/h (3 Bft) 97,87 %
12.05.2019 10:46 13,1 C 14,4 C 14,4 C 64 % 1030,8 hPa 0,0 l/m 0 min 0 min 210 W/m 12,9 km/h (3 Bft) 97,83 %
12.05.2019 10:48 13,0 C 16,1 C 16,1 C 64 % 1030,8 hPa 0,0 l/m 0 min 0 min 245 W/m 12,9 km/h (3 Bft) 97,87 %
12.05.2019 10:50 12,9 C 15,6 C 15,0 C 65 % 1030,8 hPa 0,0 l/m 0 min 0 min 218 W/m 16,1 km/h (3 Bft) 95,74 %
12.05.2019 10:52 12,9 C 13,9 C 13,3 C 63 % 1030,9 hPa 0,0 l/m 0 min 0 min 137 W/m 16,1 km/h (3 Bft) 98,00 %
12.05.2019 10:54 12,7 C 12,8 C 12,8 C 63 % 1030,9 hPa 0,0 l/m 0 min 0 min 133 W/m 9,7 km/h (2 Bft) 95,74 %
12.05.2019 10:56 12,6 C 12,8 C 12,2 C 63 % 1031,0 hPa 0,0 l/m 0 min 0 min 156 W/m 9,7 km/h (2 Bft) 95,65 %
12.05.2019 10:58 12,4 C 12,2 C 12,2 C 63 % 1031,0 hPa 0,0 l/m 0 min 0 min 190 W/m 12,9 km/h (3 Bft) 97,30 %
12.05.2019 11:00 12,3 C 12,2 C 12,2 C 61 % 1031,0 hPa 0,0 l/m 0 min 0 min 254 W/m 22,5 km/h (4 Bft) 97,87 %
12.05.2019 11:02 12,2 C 12,2 C 12,2 C 62 % 1031,0 hPa 0,0 l/m 0 min 0 min 247 W/m 19,3 km/h (3 Bft) 97,87 %
12.05.2019 11:04 12,1 C 15,0 C 14,4 C 63 % 1030,9 hPa 0,0 l/m 0 min 0 min 250 W/m 19,3 km/h (3 Bft) 96,30 %
12.05.2019 11:06 12,0 C 15,0 C 14,4 C 64 % 1030,8 hPa 0,0 l/m 0 min 0 min 256 W/m 9,7 km/h (2 Bft) 95,92 %
12.05.2019 11:08 12,0 C 15,0 C 15,0 C 65 % 1030,9 hPa 0,0 l/m 0 min 0 min 221 W/m 16,1 km/h (3 Bft) 97,87 %
12.05.2019 11:10 12,1 C 16,1 C 15,6 C 64 % 1030,9 hPa 0,0 l/m 0 min 0 min 221 W/m 19,3 km/h (3 Bft) 97,87 %
12.05.2019 11:12 12,1 C 19,4 C 18,9 C 65 % 1030,8 hPa 0,0 l/m 2 min 0 min 626 W/m 12,9 km/h (3 Bft) 95,74 %
12.05.2019 11:14 12,3 C 21,7 C 21,1 C 66 % 1030,8 hPa 0,0 l/m 2 min 0 min 942 W/m 6,4 km/h (2 Bft) 97,87 %
12.05.2019 11:16 12,6 C 23,9 C 22,8 C 66 % 1030,9 hPa 0,0 l/m 2 min 0 min 1001 W/m 9,7 km/h (2 Bft) 97,37 %
12.05.2019 11:18 12,8 C 25,0 C 24,4 C 66 % 1030,9 hPa 0,0 l/m 2 min 0 min 1013 W/m 12,9 km/h (3 Bft) 97,92 %
12.05.2019 11:20 13,2 C 21,7 C 21,7 C 63 % 1030,9 hPa 0,0 l/m 2 min 0 min 988 W/m 12,9 km/h (3 Bft) 97,87 %
12.05.2019 11:22 13,4 C 19,4 C 19,4 C 63 % 1031,0 hPa 0,0 l/m 0 min 0 min 342 W/m 16,1 km/h (3 Bft) 97,87 %
12.05.2019 11:24 13,4 C 18,3 C 18,3 C 63 % 1031,1 hPa 0,0 l/m 0 min 0 min 244 W/m 19,3 km/h (3 Bft) 97,87 %
12.05.2019 11:26 13,6 C 17,8 C 17,8 C 62 % 1031,0 hPa 0,0 l/m 0 min 0 min 239 W/m 25,7 km/h (4 Bft) 97,83 %
12.05.2019 11:28 13,6 C 19,4 C 19,4 C 61 % 1031,1 hPa 0,0 l/m 2 min 0 min 561 W/m 22,5 km/h (4 Bft) 97,87 %
12.05.2019 11:30 13,6 C 21,7 C 21,7 C 62 % 1031,0 hPa 0,0 l/m 2 min 0 min 916 W/m 12,9 km/h (3 Bft) 97,87 %
12.05.2019 11:32 13,7 C 22,2 C 22,2 C 61 % 1031,0 hPa 0,0 l/m 2 min 0 min 915 W/m 19,3 km/h (3 Bft) 98,15 %
12.05.2019 11:34 13,9 C 22,8 C 23,3 C 61 % 1031,0 hPa 0,0 l/m 2 min 0 min 934 W/m 19,3 km/h (3 Bft) 97,37 %
12.05.2019 11:36 14,1 C 23,9 C 24,4 C 61 % 1031,0 hPa 0,0 l/m 2 min 0 min 917 W/m 16,1 km/h (3 Bft) 97,96 %
12.05.2019 11:38 14,2 C 22,8 C 23,9 C 60 % 1031,0 hPa 0,0 l/m 2 min 0 min 908 W/m 19,3 km/h (3 Bft) 100,00 %
12.05.2019 11:40 14,3 C 23,3 C 24,4 C 59 % 1031,1 hPa 0,0 l/m 2 min 0 min 888 W/m 9,7 km/h (2 Bft) 97,87 %
12.05.2019 11:42 14,5 C 23,9 C 24,4 C 59 % 1031,1 hPa 0,0 l/m 2 min 0 min 905 W/m 12,9 km/h (3 Bft) 100,00 %
12.05.2019 11:44 14,7 C 23,3 C 24,4 C 58 % 1031,1 hPa 0,0 l/m 2 min 0 min 921 W/m 12,9 km/h (3 Bft) 97,87 %
12.05.2019 11:00 12,3 C 12,2 C 12,2 C 61 % 1031,0 hPa 0,0 l/m 0 min 0 min 219 W/m 22,5 km/h (4 Bft) 99,12 %
12.05.2019 11:05 12,1 C 15,0 C 14,4 C 64 % 1031,0 hPa 0,0 l/m 0 min 0 min 255 W/m 19,3 km/h (3 Bft) 100,00 %
12.05.2019 11:10 12,1 C 16,1 C 15,6 C 64 % 1030,9 hPa 0,0 l/m 0 min 0 min 221 W/m 22,5 km/h (4 Bft) 99,12 %
12.05.2019 11:15 12,4 C 23,3 C 22,2 C 66 % 1030,8 hPa 0,0 l/m 5 min 0 min 949 W/m 12,9 km/h (3 Bft) 99,12 %
12.05.2019 11:20 13,2 C 21,7 C 21,7 C 63 % 1030,9 hPa 0,0 l/m 5 min 0 min 1006 W/m 12,9 km/h (3 Bft) 100,00 %
12.05.2019 11:25 13,5 C 18,9 C 18,9 C 62 % 1031,0 hPa 0,0 l/m 0 min 0 min 245 W/m 19,3 km/h (3 Bft) 100,00 %
12.05.2019 11:30 13,6 C 21,7 C 21,7 C 62 % 1031,0 hPa 0,0 l/m 5 min 0 min 923 W/m 25,7 km/h (4 Bft) 100,00 %
12.05.2019 11:35 13,9 C 23,9 C 24,4 C 62 % 1031,0 hPa 0,0 l/m 5 min 0 min 925 W/m 19,3 km/h (3 Bft) 100,00 %
12.05.2019 11:40 14,3 C 23,3 C 24,4 C 59 % 1031,1 hPa 0,0 l/m 5 min 0 min 900 W/m 19,3 km/h (3 Bft) 100,00 %
12.05.2019 11:53 14,9 C 20,6 C 24,4 C 55 % 1031,2 hPa 0,0 l/m 5 min 0 min 926 W/m 16,1 km/h (3 Bft) 100,00 %
12.05.2019 11:54 14,9 C 21,7 C 24,4 C 56 % 1031,2 hPa 0,0 l/m 1 min 0 min 1076 W/m 16,1 km/h (3 Bft) 100,00 %
12.05.2019 11:56 14,9 C 18,9 C 24,4 C 54 % 1031,2 hPa 0,0 l/m 2 min 0 min 731 W/m 16,1 km/h (3 Bft) 94,92 %
12.05.2019 11:58 14,8 C 17,2 C 17,8 C 55 % 1031,1 hPa 0,0 l/m 0 min 0 min 274 W/m 9,7 km/h (2 Bft) 95,74 %
12.05.2019 12:00 14,8 C 18,3 C 18,9 C 56 % 1031,1 hPa 0,0 l/m 0 min 0 min 315 W/m 19,3 km/h (3 Bft) 97,87 %
12.05.2019 12:02 14,8 C 17,8 C 18,3 C 56 % 1031,2 hPa 0,0 l/m 0 min 0 min 354 W/m 16,1 km/h (3 Bft) 93,62 %
12.05.2019 12:04 14,7 C 16,7 C 17,2 C 58 % 1031,2 hPa 0,0 l/m 0 min 0 min 339 W/m 22,5 km/h (4 Bft) 95,74 %
12.05.2019 12:07 14,6 C 16,1 C 16,7 C 56 % 1031,3 hPa 0,0 l/m 0 min 0 min 347 W/m 16,1 km/h (3 Bft) 97,14 %
12.05.2019 12:08 14,6 C 16,1 C 16,1 C 56 % 1031,3 hPa 0,0 l/m 0 min 0 min 318 W/m 12,9 km/h (3 Bft) 100,00 %
12.05.2019 12:10 14,4 C 15,6 C 15,6 C 56 % 1031,3 hPa 0,0 l/m 0 min 0 min 306 W/m 12,9 km/h (3 Bft) 97,87 %
12.05.2019 12:12 14,3 C 15,0 C 15,0 C 57 % 1031,3 hPa 0,0 l/m 0 min 0 min 278 W/m 19,3 km/h (3 Bft) 95,74 %
12.05.2019 12:14 14,2 C 15,0 C 15,0 C 55 % 1031,3 hPa 0,0 l/m 0 min 0 min 248 W/m 19,3 km/h (3 Bft) 97,87 %
12.05.2019 12:16 14,2 C 17,2 C 17,2 C 54 % 1031,4 hPa 0,0 l/m 0 min 0 min 329 W/m 22,5 km/h (4 Bft) 97,87 %
12.05.2019 12:18 14,2 C 20,6 C 20,6 C 56 % 1031,4 hPa 0,0 l/m 2 min 0 min 538 W/m 16,1 km/h (3 Bft) 97,83 %
12.05.2019 12:20 14,2 C 22,8 C 22,8 C 57 % 1031,3 hPa 0,0 l/m 2 min 0 min 993 W/m 9,7 km/h (2 Bft) 95,74 %
12.05.2019 12:22 14,3 C 23,3 C 23,9 C 56 % 1031,3 hPa 0,0 l/m 2 min 0 min 1010 W/m 19,3 km/h (3 Bft) 97,87 %
12.05.2019 12:24 14,5 C 24,4 C 24,4 C 57 % 1031,3 hPa 0,0 l/m 2 min 0 min 1036 W/m 9,7 km/h (2 Bft) 97,87 %
12.05.2019 12:26 14,7 C 25,0 C 25,0 C 58 % 1031,3 hPa 0,0 l/m 2 min 0 min 1076 W/m 9,7 km/h (2 Bft) 97,87 %
12.05.2019 12:28 14,9 C 25,6 C 25,6 C 58 % 1031,3 hPa 0,0 l/m 2 min 0 min 1054 W/m 6,4 km/h (2 Bft) 97,83 %
12.05.2019 12:30 15,2 C 25,0 C 25,6 C 54 % 1031,3 hPa 0,0 l/m 2 min 0 min 1054 W/m 19,3 km/h (3 Bft) 95,74 %
12.05.2019 12:32 15,4 C 25,0 C 25,6 C 54 % 1031,3 hPa 0,0 l/m 2 min 0 min 1042 W/m 9,7 km/h (2 Bft) 97,87 %
12.05.2019 12:34 15,6 C 24,4 C 25,6 C 54 % 1031,2 hPa 0,0 l/m 2 min 0 min 1038 W/m 19,3 km/h (3 Bft) 95,74 %
12.05.2019 12:36 15,8 C 24,4 C 26,1 C 53 % 1031,2 hPa 0,0 l/m 2 min 0 min 1039 W/m 22,5 km/h (4 Bft) 95,74 %
12.05.2019 12:38 15,9 C 25,0 C 26,7 C 54 % 1031,2 hPa 0,0 l/m 2 min 0 min 1062 W/m 16,1 km/h (3 Bft) 100,00 %
12.05.2019 12:40 16,1 C 25,0 C 27,2 C 53 % 1031,3 hPa 0,0 l/m 2 min 0 min 1095 W/m 12,9 km/h (3 Bft) 97,87 %
12.05.2019 12:42 16,2 C 23,9 C 25,6 C 53 % 1031,3 hPa 0,0 l/m 2 min 0 min 1123 W/m 19,3 km/h (3 Bft) 100,00 %
12.05.2019 12:44 16,3 C 21,7 C 23,3 C 52 % 1031,3 hPa 0,0 l/m 2 min 0 min 1049 W/m 9,7 km/h (2 Bft) 100,00 %
12.05.2019 12:46 16,2 C 19,4 C 20,6 C 51 % 1031,3 hPa 0,0 l/m 0 min 0 min 241 W/m 19,3 km/h (3 Bft) 100,00 %
12.05.2019 12:48 16,1 C 17,8 C 18,3 C 52 % 1031,4 hPa 0,0 l/m 0 min 0 min 249 W/m 19,3 km/h (3 Bft) 100,00 %
12.05.2019 12:50 15,9 C 17,8 C 18,9 C 52 % 1031,3 hPa 0,0 l/m 0 min 0 min 280 W/m 19,3 km/h (3 Bft) 100,00 %
12.05.2019 12:52 15,8 C 18,9 C 19,4 C 51 % 1031,3 hPa 0,0 l/m 0 min 0 min 304 W/m 16,1 km/h (3 Bft) 100,00 %
12.05.2019 12:54 15,7 C 18,3 C 18,9 C 53 % 1031,3 hPa 0,0 l/m 0 min 0 min 345 W/m 12,9 km/h (3 Bft) 100,00 %
12.05.2019 12:56 15,6 C 18,9 C 20,0 C 54 % 1031,4 hPa 0,0 l/m 0 min 0 min 394 W/m 12,9 km/h (3 Bft) 100,00 %
12.05.2019 12:58 15,7 C 22,2 C 22,8 C 55 % 1031,3 hPa 0,0 l/m 2 min 0 min 904 W/m 9,7 km/h (2 Bft) 100,00 %
12.05.2019 13:00 15,7 C 21,7 C 22,2 C 55 % 1031,5 hPa 0,0 l/m 2 min 0 min 834 W/m 16,1 km/h (3 Bft) 100,00 %
12.05.2019 13:02 15,8 C 22,2 C 22,8 C 54 % 1031,4 hPa 0,0 l/m 2 min 0 min 835 W/m 16,1 km/h (3 Bft) 97,87 %
12.05.2019 13:04 15,8 C 20,0 C 20,6 C 55 % 1031,4 hPa 0,0 l/m 2 min 0 min 1005 W/m 12,9 km/h (3 Bft) 100,00 %
12.05.2019 13:06 15,8 C 22,2 C 22,8 C 55 % 1031,4 hPa 0,0 l/m 2 min 0 min 769 W/m 19,3 km/h (3 Bft) 100,00 %
12.05.2019 13:08 15,8 C 20,6 C 21,1 C 54 % 1031,4 hPa 0,0 l/m 2 min 0 min 1149 W/m 19,3 km/h (3 Bft) 100,00 %
12.05.2019 13:10 15,8 C 18,3 C 18,9 C 52 % 1031,3 hPa 0,0 l/m 0 min 0 min 310 W/m 16,1 km/h (3 Bft) 100,00 %
12.05.2019 13:12 15,7 C 16,7 C 17,2 C 53 % 1031,3 hPa 0,0 l/m 0 min 0 min 271 W/m 19,3 km/h (3 Bft) 100,00 %
12.05.2019 13:30 15,3 C 19,4 C 21,1 C 53 % 1031,4 hPa 0,0 l/m 5 min 0 min 857 W/m 12,9 km/h (3 Bft) 99,68 %
12.05.2019 13:35 15,4 C 22,2 C 24,4 C 53 % 1031,5 hPa 0,0 l/m 5 min 0 min 1077 W/m 22,5 km/h (4 Bft) 100,00 %
12.05.2019 13:40 15,7 C 21,1 C 22,2 C 53 % 1031,4 hPa 0,0 l/m 5 min 0 min 921 W/m 19,3 km/h (3 Bft) 100,00 %
12.05.2019 13:45 15,6 C 17,2 C 17,2 C 52 % 1031,4 hPa 0,0 l/m 0 min 0 min 283 W/m 12,9 km/h (3 Bft) 100,00 %
12.05.2019 13:50 15,4 C 15,0 C 15,6 C 52 % 1031,4 hPa 0,0 l/m 0 min 0 min 238 W/m 12,9 km/h (3 Bft) 99,12 %
12.05.2019 13:55 15,1 C 16,7 C 17,2 C 53 % 1031,4 hPa 0,0 l/m 0 min 0 min 272 W/m 9,7 km/h (2 Bft) 95,61 %
12.05.2019 14:00 15,2 C 21,7 C 22,8 C 54 % 1031,3 hPa 0,0 l/m 5 min 0 min 1076 W/m 19,3 km/h (3 Bft) 100,00 %
12.05.2019 14:05 15,7 C 22,8 C 24,4 C 56 % 1031,5 hPa 0,0 l/m 5 min 0 min 1143 W/m 12,9 km/h (3 Bft) 97,37 %
12.05.2019 14:10 15,9 C 17,8 C 18,3 C 53 % 1031,4 hPa 0,0 l/m 5 min 0 min 540 W/m 19,3 km/h (3 Bft) 99,12 %
12.05.2019 14:15 15,9 C 21,1 C 22,2 C 51 % 1031,4 hPa 0,0 l/m 5 min 0 min 684 W/m 12,9 km/h (3 Bft) 97,37 %
12.05.2019 14:20 16,2 C 21,1 C 22,8 C 54 % 1031,5 hPa 0,0 l/m 5 min 0 min 678 W/m 12,9 km/h (3 Bft) 98,25 %
12.05.2019 14:25 16,4 C 21,1 C 23,3 C 53 % 1031,5 hPa 0,0 l/m 5 min 0 min 716 W/m 9,7 km/h (2 Bft) 98,25 %
12.05.2019 14:30 16,4 C 17,8 C 18,9 C 50 % 1031,4 hPa 0,0 l/m 5 min 0 min 627 W/m 19,3 km/h (3 Bft) 94,74 %
12.05.2019 14:35 16,2 C 15,0 C 15,6 C 51 % 1031,5 hPa 0,0 l/m 0 min 0 min 158 W/m 22,5 km/h (4 Bft) 97,37 %
12.05.2019 14:40 15,9 C 18,9 C 18,9 C 53 % 1031,4 hPa 0,0 l/m 5 min 0 min 735 W/m 19,3 km/h (3 Bft) 97,37 %
12.05.2019 14:45 16,0 C 21,7 C 20,6 C 53 % 1031,4 hPa 0,0 l/m 5 min 0 min 1031 W/m 19,3 km/h (3 Bft) 97,37 %
12.05.2019 14:50 16,4 C 20,6 C 18,9 C 53 % 1031,5 hPa 0,0 l/m 5 min 0 min 838 W/m 22,5 km/h (4 Bft) 96,49 %
12.05.2019 14:55 16,5 C 20,6 C 17,8 C 54 % 1031,6 hPa 0,0 l/m 5 min 0 min 658 W/m 19,3 km/h (3 Bft) 97,37 %
12.05.2019 15:00 16,7 C 21,7 C 17,8 C 51 % 1031,5 hPa 0,0 l/m 5 min 0 min 976 W/m 22,5 km/h (4 Bft) 97,37 %
12.05.2019 15:26 17,4 C 21,7 C 17,2 C 52 % 1031,7 hPa 0,0 l/m 5 min 0 min 1009 W/m 19,3 km/h (3 Bft) 100,00 %
12.05.2019 15:28 17,4 C 20,0 C 17,2 C 50 % 1031,8 hPa 0,0 l/m 2 min 0 min 1009 W/m 22,5 km/h (4 Bft) 96,43 %
12.05.2019 15:30 17,4 C 21,1 C 17,2 C 51 % 1031,7 hPa 0,0 l/m 2 min 0 min 1017 W/m 16,1 km/h (3 Bft) 97,37 %
12.05.2019 15:32 17,4 C 21,1 C 17,2 C 51 % 1031,6 hPa 0,0 l/m 2 min 0 min 758 W/m 29,0 km/h (5 Bft) 100,00 %
12.05.2019 15:34 17,4 C 20,0 C 17,2 C 51 % 1031,7 hPa 0,0 l/m 2 min 0 min 755 W/m 16,1 km/h (3 Bft) 100,00 %
12.05.2019 15:36 17,4 C 18,9 C 17,2 C 51 % 1031,7 hPa 0,0 l/m 2 min 0 min 879 W/m 12,9 km/h (3 Bft) 97,96 %
12.05.2019 15:38 17,3 C 18,3 C 16,7 C 52 % 1031,6 hPa 0,0 l/m 0 min 0 min 229 W/m 12,9 km/h (3 Bft) 100,00 %
12.05.2019 15:40 17,2 C 17,2 C 16,1 C 52 % 1031,8 hPa 0,0 l/m 0 min 0 min 198 W/m 12,9 km/h (3 Bft) 100,00 %
12.05.2019 15:42 17,1 C 16,7 C 15,6 C 52 % 1031,8 hPa 0,0 l/m 0 min 0 min 178 W/m 9,7 km/h (2 Bft) 95,74 %
12.05.2019 15:44 17,0 C 16,1 C 15,6 C 52 % 1031,8 hPa 0,0 l/m 0 min 0 min 156 W/m 12,9 km/h (3 Bft) 100,00 %
12.05.2019 15:46 16,8 C 15,6 C 15,0 C 50 % 1031,8 hPa 0,0 l/m 0 min 0 min 137 W/m 9,7 km/h (2 Bft) 100,00 %
12.05.2019 15:48 16,7 C 15,6 C 15,0 C 52 % 1031,9 hPa 0,0 l/m 0 min 0 min 121 W/m 16,1 km/h (3 Bft) 97,87 %
12.05.2019 15:50 16,6 C 15,0 C 14,4 C 52 % 1031,9 hPa 0,0 l/m 0 min 0 min 110 W/m 12,9 km/h (3 Bft) 100,00 %
12.05.2019 15:52 16,4 C 14,4 C 14,4 C 53 % 1031,9 hPa 0,0 l/m 0 min 0 min 97 W/m 6,4 km/h (2 Bft) 100,00 %
12.05.2019 15:54 16,2 C 14,4 C 13,9 C 54 % 1031,9 hPa 0,0 l/m 0 min 0 min 89 W/m 16,1 km/h (3 Bft) 100,00 %
12.05.2019 15:56 16,1 C 13,9 C 13,9 C 54 % 1031,9 hPa 0,0 l/m 0 min 0 min 86 W/m 6,4 km/h (2 Bft) 100,00 %
12.05.2019 15:58 15,9 C 13,9 C 13,9 C 54 % 1031,9 hPa 0,0 l/m 0 min 0 min 88 W/m 9,7 km/h (2 Bft) 100,00 %
12.05.2019 16:00 15,7 C 13,9 C 13,3 C 54 % 1031,9 hPa 0,0 l/m 0 min 0 min 91 W/m 9,7 km/h (2 Bft) 100,00 %
12.05.2019 16:02 15,6 C 13,9 C 13,3 C 54 % 1032,0 hPa 0,0 l/m 0 min 0 min 99 W/m 9,7 km/h (2 Bft) 100,00 %
12.05.2019 16:04 15,4 C 13,9 C 13,3 C 55 % 1032,0 hPa 0,0 l/m 0 min 0 min 117 W/m 9,7 km/h (2 Bft) 97,87 %
12.05.2019 16:06 15,3 C 13,9 C 13,3 C 55 % 1032,0 hPa 0,0 l/m 0 min 0 min 137 W/m 6,4 km/h (2 Bft) 98,11 %
12.05.2019 16:08 15,2 C 13,9 C 13,3 C 55 % 1032,1 hPa 0,0 l/m 0 min 0 min 152 W/m 19,3 km/h (3 Bft) 100,00 %
12.05.2019 16:10 15,1 C 13,9 C 13,3 C 55 % 1032,0 hPa 0,0 l/m 0 min 0 min 172 W/m 9,7 km/h (2 Bft) 100,00 %
12.05.2019 16:12 14,9 C 13,9 C 13,9 C 56 % 1032,0 hPa 0,0 l/m 0 min 0 min 188 W/m 16,1 km/h (3 Bft) 100,00 %
12.05.2019 16:14 14,8 C 14,4 C 13,9 C 56 % 1032,1 hPa 0,0 l/m 0 min 0 min 197 W/m 16,1 km/h (3 Bft) 100,00 %
12.05.2019 16:16 14,8 C 14,4 C 13,9 C 57 % 1032,1 hPa 0,0 l/m 0 min 0 min 204 W/m 12,9 km/h (3 Bft) 100,00 %
12.05.2019 16:18 14,7 C 14,4 C 14,4 C 56 % 1032,2 hPa 0,0 l/m 0 min 0 min 211 W/m 12,9 km/h (3 Bft) 100,00 %
12.05.2019 16:20 14,7 C 15,0 C 14,4 C 58 % 1032,2 hPa 0,0 l/m 0 min 0 min 214 W/m 9,7 km/h (2 Bft) 98,11 %
12.05.2019 16:22 14,6 C 15,0 C 14,4 C 58 % 1032,1 hPa 0,0 l/m 0 min 0 min 216 W/m 6,4 km/h (2 Bft) 100,00 %
12.05.2019 16:24 14,6 C 14,4 C 14,4 C 57 % 1032,2 hPa 0,0 l/m 0 min 0 min 226 W/m 12,9 km/h (3 Bft) 100,00 %
12.05.2019 16:26 14,5 C 15,0 C 14,4 C 58 % 1032,2 hPa 0,0 l/m 0 min 0 min 245 W/m 6,4 km/h (2 Bft) 100,00 %
12.05.2019 16:28 14,5 C 15,0 C 14,4 C 59 % 1032,2 hPa 0,0 l/m 0 min 0 min 286 W/m 9,7 km/h (2 Bft) 100,00 %
12.05.2019 16:30 14,5 C 15,0 C 14,4 C 60 % 1032,2 hPa 0,0 l/m 2 min 0 min 331 W/m 6,4 km/h (2 Bft) 100,00 %
12.05.2019 16:32 14,6 C 15,6 C 15,0 C 60 % 1032,2 hPa 0,0 l/m 2 min 0 min 494 W/m 12,9 km/h (3 Bft) 100,00 %
12.05.2019 16:34 14,6 C 16,7 C 15,0 C 60 % 1032,2 hPa 0,0 l/m 2 min 0 min 568 W/m 9,7 km/h (2 Bft) 100,00 %
12.05.2019 16:36 14,8 C 17,2 C 15,6 C 61 % 1032,1 hPa 0,0 l/m 2 min 0 min 655 W/m 16,1 km/h (3 Bft) 100,00 %
12.05.2019 16:38 15,0 C 17,2 C 15,6 C 60 % 1032,1 hPa 0,0 l/m 2 min 0 min 704 W/m 12,9 km/h (3 Bft) 100,00 %
12.05.2019 16:40 15,1 C 16,7 C 15,6 C 59 % 1032,1 hPa 0,0 l/m 2 min 0 min 398 W/m 12,9 km/h (3 Bft) 100,00 %
12.05.2019 16:42 15,2 C 16,7 C 15,6 C 56 % 1032,1 hPa 0,0 l/m 2 min 0 min 462 W/m 35,4 km/h (5 Bft) 94,74 %
12.05.2019 16:44 15,3 C 16,7 C 15,6 C 57 % 1032,1 hPa 0,0 l/m 2 min 0 min 356 W/m 6,4 km/h (2 Bft) 100,00 %
12.05.2019 16:46 15,4 C 16,1 C 15,0 C 59 % 1032,1 hPa 0,0 l/m 2 min 0 min 369 W/m 9,7 km/h (2 Bft) 96,15 %
12.05.2019 16:48 15,4 C 16,7 C 15,0 C 59 % 1032,0 hPa 0,0 l/m 2 min 0 min 369 W/m 12,9 km/h (3 Bft) 93,62 %
12.05.2019 16:50 15,6 C 16,1 C 15,0 C 56 % 1032,0 hPa 0,0 l/m 2 min 0 min 376 W/m 12,9 km/h (3 Bft) 95,74 %
12.05.2019 16:52 15,6 C 16,1 C 15,0 C 57 % 1032,1 hPa 0,0 l/m 0 min 0 min 290 W/m 12,9 km/h (3 Bft) 96,00 %
12.05.2019 16:54 15,7 C 16,7 C 15,0 C 59 % 1032,1 hPa 0,0 l/m 2 min 0 min 584 W/m 12,9 km/h (3 Bft) 93,62 %
12.05.2019 16:56 15,8 C 16,7 C 15,0 C 58 % 1032,1 hPa 0,0 l/m 2 min 0 min 685 W/m 12,9 km/h (3 Bft) 95,65 %
12.05.2019 16:58 16,0 C 16,7 C 15,0 C 59 % 1032,0 hPa 0,0 l/m 2 min 0 min 678 W/m 9,7 km/h (2 Bft) 97,37 %
12.05.2019 17:00 16,1 C 16,7 C 15,0 C 55 % 1032,0 hPa 0,0 l/m 2 min 0 min 670 W/m 22,5 km/h (4 Bft) 93,62 %
12.05.2019 17:02 16,2 C 16,7 C 15,0 C 58 % 1032,1 hPa 0,0 l/m 2 min 0 min 664 W/m 12,9 km/h (3 Bft) 95,74 %
12.05.2019 17:04 16,3 C 16,7 C 15,6 C 54 % 1032,1 hPa 0,0 l/m 2 min 0 min 660 W/m 22,5 km/h (4 Bft) 93,62 %
12.05.2019 17:06 16,4 C 16,7 C 15,6 C 53 % 1032,1 hPa 0,0 l/m 2 min 0 min 668 W/m 9,7 km/h (2 Bft) 94,34 %
12.05.2019 17:08 16,6 C 16,7 C 16,1 C 54 % 1032,1 hPa 0,0 l/m 2 min 0 min 682 W/m 12,9 km/h (3 Bft) 95,65 %
12.05.2019 17:10 16,7 C 17,2 C 16,1 C 54 % 1031,9 hPa 0,0 l/m 2 min 0 min 682 W/m 9,7 km/h (2 Bft) 97,87 %
12.05.2019 17:12 16,8 C 17,2 C 16,1 C 54 % 1031,9 hPa 0,0 l/m 2 min 0 min 701 W/m 6,4 km/h (2 Bft) 96,00 %
12.05.2019 17:14 16,9 C 17,8 C 16,1 C 55 % 1032,0 hPa 0,0 l/m 2 min 0 min 723 W/m 9,7 km/h (2 Bft) 94,74 %
12.05.2019 17:16 17,1 C 17,8 C 16,1 C 51 % 1032,1 hPa 0,0 l/m 2 min 0 min 738 W/m 35,4 km/h (5 Bft) 95,74 %
12.05.2019 17:18 17,2 C 17,8 C 16,7 C 53 % 1032,2 hPa 0,0 l/m 2 min 0 min 733 W/m 9,7 km/h (2 Bft) 94,34 %
12.05.2019 17:20 17,3 C 18,3 C 16,7 C 52 % 1032,0 hPa 0,0 l/m 2 min 0 min 719 W/m 16,1 km/h (3 Bft) 97,96 %
12.05.2019 17:22 17,4 C 17,8 C 16,7 C 51 % 1031,9 hPa 0,0 l/m 2 min 0 min 683 W/m 12,9 km/h (3 Bft) 94,74 %
12.05.2019 17:24 17,4 C 17,8 C 16,1 C 51 % 1032,0 hPa 0,0 l/m 2 min 0 min 648 W/m 9,7 km/h (2 Bft) 95,74 %
12.05.2019 17:26 17,6 C 17,8 C 16,7 C 52 % 1032,1 hPa 0,0 l/m 2 min 0 min 683 W/m 16,1 km/h (3 Bft) 94,34 %
12.05.2019 17:28 17,7 C 17,8 C 16,7 C 52 % 1032,1 hPa 0,0 l/m 2 min 0 min 693 W/m 12,9 km/h (3 Bft) 97,87 %
12.05.2019 17:30 17,7 C 17,8 C 16,7 C 50 % 1032,2 hPa 0,0 l/m 2 min 0 min 722 W/m 9,7 km/h (2 Bft) 100,00 %
12.05.2019 17:32 17,7 C 17,8 C 16,7 C 52 % 1032,2 hPa 0,0 l/m 2 min 0 min 686 W/m 16,1 km/h (3 Bft) 100,00 %
12.05.2019 17:34 17,7 C 17,2 C 16,1 C 50 % 1032,0 hPa 0,0 l/m 0 min 0 min 233 W/m 12,9 km/h (3 Bft) 100,00 %
12.05.2019 17:36 17,7 C 16,7 C 15,6 C 50 % 1032,0 hPa 0,0 l/m 0 min 0 min 236 W/m 12,9 km/h (3 Bft) 97,87 %
12.05.2019 17:38 17,5 C 16,1 C 15,6 C 50 % 1032,0 hPa 0,0 l/m 0 min 0 min 173 W/m 9,7 km/h (2 Bft) 100,00 %
12.05.2019 17:40 17,3 C 16,1 C 15,0 C 51 % 1032,1 hPa 0,0 l/m 0 min 0 min 161 W/m 12,9 km/h (3 Bft) 100,00 %
12.05.2019 17:42 17,1 C 15,6 C 15,0 C 52 % 1032,1 hPa 0,0 l/m 0 min 0 min 159 W/m 9,7 km/h (2 Bft) 100,00 %
12.05.2019 17:44 17,0 C 15,6 C 15,0 C 51 % 1032,1 hPa 0,0 l/m 0 min 0 min 167 W/m 16,1 km/h (3 Bft) 100,00 %
12.05.2019 17:46 16,9 C 15,6 C 14,4 C 52 % 1032,0 hPa 0,0 l/m 0 min 0 min 162 W/m 9,7 km/h (2 Bft) 100,00 %
12.05.2019 17:48 16,7 C 15,0 C 14,4 C 51 % 1032,1 hPa 0,0 l/m 0 min 0 min 129 W/m 16,1 km/h (3 Bft) 100,00 %
12.05.2019 17:50 16,5 C 15,0 C 13,9 C 52 % 1032,1 hPa 0,0 l/m 0 min 0 min 112 W/m 9,7 km/h (2 Bft) 100,00 %
12.05.2019 17:52 16,3 C 14,4 C 13,9 C 52 % 1032,2 hPa 0,0 l/m 0 min 0 min 102 W/m 12,9 km/h (3 Bft) 100,00 %
12.05.2019 17:54 16,2 C 14,4 C 13,9 C 51 % 1032,2 hPa 0,0 l/m 0 min 0 min 98 W/m 12,9 km/h (3 Bft) 100,00 %
12.05.2019 17:56 16,0 C 14,4 C 13,9 C 53 % 1032,2 hPa 0,0 l/m 0 min 0 min 97 W/m 12,9 km/h (3 Bft) 100,00 %
12.05.2019 17:58 15,8 C 13,9 C 13,9 C 53 % 1032,2 hPa 0,0 l/m 0 min 0 min 92 W/m 9,7 km/h (2 Bft) 100,00 %
12.05.2019 18:00 15,7 C 13,9 C 13,3 C 53 % 1032,2 hPa 0,0 l/m 0 min 0 min 93 W/m 9,7 km/h (2 Bft) 100,00 %
12.05.2019 18:02 15,6 C 13,9 C 13,9 C 54 % 1032,2 hPa 0,0 l/m 0 min 0 min 102 W/m 6,4 km/h (2 Bft) 100,00 %
12.05.2019 18:04 15,4 C 13,9 C 13,9 C 54 % 1032,3 hPa 0,0 l/m 0 min 0 min 108 W/m 9,7 km/h (2 Bft) 97,87 %
12.05.2019 18:07 15,3 C 13,9 C 13,3 C 54 % 1032,3 hPa 0,0 l/m 0 min 0 min 121 W/m 16,1 km/h (3 Bft) 98,57 %
12.05.2019 18:08 15,2 C 13,9 C 13,3 C 54 % 1032,3 hPa 0,0 l/m 0 min 0 min 134 W/m 12,9 km/h (3 Bft) 100,00 %
12.05.2019 18:10 15,1 C 13,9 C 13,9 C 55 % 1032,4 hPa 0,0 l/m 0 min 0 min 135 W/m 9,7 km/h (2 Bft) 100,00 %
12.05.2019 18:12 15,0 C 14,4 C 13,9 C 55 % 1032,4 hPa 0,0 l/m 0 min 0 min 135 W/m 9,7 km/h (2 Bft) 97,87 %
12.05.2019 18:14 14,9 C 14,4 C 13,9 C 54 % 1032,3 hPa 0,0 l/m 0 min 0 min 134 W/m 16,1 km/h (3 Bft) 97,87 %
12.05.2019 18:16 14,8 C 13,9 C 13,9 C 54 % 1032,3 hPa 0,0 l/m 0 min 0 min 130 W/m 9,7 km/h (2 Bft) 97,87 %
12.05.2019 18:18 14,8 C 14,4 C 13,9 C 54 % 1032,4 hPa 0,0 l/m 0 min 0 min 133 W/m 9,7 km/h (2 Bft) 100,00 %
12.05.2019 18:20 14,7 C 14,4 C 13,9 C 54 % 1032,5 hPa 0,0 l/m 0 min 0 min 136 W/m 16,1 km/h (3 Bft) 100,00 %
12.05.2019 18:22 14,7 C 14,4 C 13,9 C 54 % 1032,5 hPa 0,0 l/m 0 min 0 min 141 W/m 12,9 km/h (3 Bft) 95,74 %
12.05.2019 18:24 14,6 C 14,4 C 13,9 C 55 % 1032,6 hPa 0,0 l/m 0 min 0 min 141 W/m 9,7 km/h (2 Bft) 97,87 %
12.05.2019 18:26 14,6 C 14,4 C 13,9 C 55 % 1032,4 hPa 0,0 l/m 0 min 0 min 139 W/m 9,7 km/h (2 Bft) 97,87 %
12.05.2019 18:28 14,6 C 13,9 C 13,9 C 55 % 1032,6 hPa 0,0 l/m 0 min 0 min 142 W/m 16,1 km/h (3 Bft) 97,87 %
12.05.2019 18:30 14,5 C 13,9 C 13,3 C 55 % 1032,6 hPa 0,0 l/m 0 min 0 min 141 W/m 19,3 km/h (3 Bft) 95,65 %
12.05.2019 18:32 14,4 C 13,9 C 13,3 C 56 % 1032,6 hPa 0,0 l/m 0 min 0 min 133 W/m 12,9 km/h (3 Bft) 97,87 %
12.05.2019 18:34 14,4 C 13,9 C 13,3 C 57 % 1032,6 hPa 0,0 l/m 0 min 0 min 131 W/m 16,1 km/h (3 Bft) 93,62 %
12.05.2019 18:36 14,3 C 13,9 C 13,3 C 57 % 1032,6 hPa 0,0 l/m 0 min 0 min 127 W/m 12,9 km/h (3 Bft) 97,87 %
12.05.2019 18:38 14,3 C 13,9 C 13,3 C 57 % 1032,6 hPa 0,0 l/m 0 min 0 min 131 W/m 16,1 km/h (3 Bft) 95,74 %
12.05.2019 18:40 14,2 C 13,9 C 13,3 C 57 % 1032,5 hPa 0,0 l/m 0 min 0 min 158 W/m 12,9 km/h (3 Bft) 97,87 %
12.05.2019 18:42 14,2 C 13,9 C 13,3 C 57 % 1032,6 hPa 0,0 l/m 0 min 0 min 172 W/m 16,1 km/h (3 Bft) 97,83 %
12.05.2019 18:44 14,2 C 14,4 C 13,3 C 58 % 1032,4 hPa 0,0 l/m 2 min 0 min 442 W/m 16,1 km/h (3 Bft) 97,87 %
12.05.2019 18:46 14,3 C 15,0 C 13,3 C 57 % 1032,5 hPa 0,0 l/m 2 min 0 min 444 W/m 12,9 km/h (3 Bft) 97,87 %
12.05.2019 18:48 14,3 C 15,6 C 13,9 C 57 % 1032,4 hPa 0,0 l/m 2 min 0 min 451 W/m 9,7 km/h (2 Bft) 97,87 %
12.05.2019 18:50 14,4 C 15,6 C 13,9 C 58 % 1032,4 hPa 0,0 l/m 2 min 0 min 420 W/m 6,4 km/h (2 Bft) 97,87 %
12.05.2019 18:52 14,5 C 15,6 C 13,9 C 59 % 1032,4 hPa 0,0 l/m 2 min 0 min 222 W/m 9,7 km/h (2 Bft) 97,87 %
12.05.2019 18:54 14,6 C 15,6 C 13,9 C 57 % 1032,4 hPa 0,0 l/m 2 min 0 min 183 W/m 9,7 km/h (2 Bft) 97,83 %
12.05.2019 18:56 14,7 C 15,0 C 13,9 C 57 % 1032,5 hPa 0,0 l/m 2 min 0 min 177 W/m 9,7 km/h (2 Bft) 95,74 %
12.05.2019 18:58 14,7 C 15,0 C 13,9 C 56 % 1032,5 hPa 0,0 l/m 0 min 0 min 157 W/m 9,7 km/h (2 Bft) 97,87 %
12.05.2019 19:00 14,7 C 14,4 C 13,9 C 56 % 1032,5 hPa 0,0 l/m 0 min 0 min 143 W/m 16,1 km/h (3 Bft) 97,87 %
12.05.2019 19:02 14,7 C 14,4 C 13,9 C 56 % 1032,5 hPa 0,0 l/m 0 min 0 min 132 W/m 6,4 km/h (2 Bft) 95,74 %
12.05.2019 19:04 14,7 C 14,4 C 13,9 C 55 % 1032,5 hPa 0,0 l/m 0 min 0 min 128 W/m 6,4 km/h (2 Bft) 93,62 %
12.05.2019 19:06 14,7 C 14,4 C 13,3 C 55 % 1032,6 hPa 0,0 l/m 0 min 0 min 129 W/m 12,9 km/h (3 Bft) 97,83 %
12.05.2019 19:08 14,7 C 13,9 C 13,3 C 56 % 1032,6 hPa 0,0 l/m 0 min 0 min 128 W/m 16,1 km/h (3 Bft) 97,92 %
12.05.2019 19:10 14,6 C 13,9 C 13,3 C 55 % 1032,6 hPa 0,0 l/m 0 min 0 min 118 W/m 19,3 km/h (3 Bft) 97,87 %
12.05.2019 19:12 14,6 C 13,9 C 13,3 C 56 % 1032,6 hPa 0,0 l/m 0 min 0 min 104 W/m 12,9 km/h (3 Bft) 97,87 %
12.05.2019 19:14 14,6 C 13,9 C 12,8 C 55 % 1032,6 hPa 0,0 l/m 0 min 0 min 86 W/m 6,4 km/h (2 Bft) 95,74 %
12.05.2019 19:16 14,5 C 13,3 C 12,8 C 57 % 1032,7 hPa 0,0 l/m 0 min 0 min 73 W/m 3,2 km/h (1 Bft) 97,87 %
12.05.2019 19:18 14,5 C 13,3 C 12,2 C 57 % 1032,7 hPa 0,0 l/m 0 min 0 min 56 W/m 6,4 km/h (2 Bft) 100,00 %
12.05.2019 19:20 14,4 C 12,8 C 12,2 C 57 % 1032,7 hPa 0,0 l/m 0 min 0 min 47 W/m 9,7 km/h (2 Bft) 97,87 %
12.05.2019 19:22 14,3 C 12,8 C 12,2 C 57 % 1032,8 hPa 0,0 l/m 0 min 0 min 42 W/m 6,4 km/h (2 Bft) 100,00 %
12.05.2019 19:24 14,2 C 12,8 C 11,7 C 57 % 1032,7 hPa 0,0 l/m 0 min 0 min 40 W/m 6,4 km/h (2 Bft) 100,00 %
12.05.2019 19:26 14,2 C 12,2 C 11,7 C 58 % 1032,6 hPa 0,0 l/m 0 min 0 min 41 W/m 6,4 km/h (2 Bft) 97,87 %
12.05.2019 19:28 14,2 C 12,2 C 11,7 C 58 % 1032,7 hPa 0,0 l/m 0 min 0 min 42 W/m 6,4 km/h (2 Bft) 97,87 %
12.05.2019 19:30 14,1 C 12,2 C 11,7 C 58 % 1032,7 hPa 0,0 l/m 0 min 0 min 42 W/m 6,4 km/h (2 Bft) 97,83 %
12.05.2019 19:32 13,9 C 12,2 C 11,7 C 59 % 1032,7 hPa 0,0 l/m 0 min 0 min 40 W/m 6,4 km/h (2 Bft) 97,87 %
12.05.2019 19:34 13,8 C 11,7 C 11,7 C 59 % 1032,7 hPa 0,0 l/m 0 min 0 min 38 W/m 6,4 km/h (2 Bft) 97,87 %
12.05.2019 19:36 13,8 C 11,7 C 11,1 C 59 % 1032,8 hPa 0,0 l/m 0 min 0 min 37 W/m 9,7 km/h (2 Bft) 97,87 %
12.05.2019 19:38 13,7 C 11,7 C 11,1 C 59 % 1032,8 hPa 0,0 l/m 0 min 0 min 35 W/m 12,9 km/h (3 Bft) 95,74 %
12.05.2019 19:40 13,6 C 11,7 C 11,1 C 59 % 1032,8 hPa 0,0 l/m 0 min 0 min 33 W/m 12,9 km/h (3 Bft) 93,48 %
12.05.2019 19:42 13,5 C 11,7 C 11,1 C 59 % 1032,8 hPa 0,0 l/m 0 min 0 min 33 W/m 12,9 km/h (3 Bft) 93,62 %
12.05.2019 19:44 13,4 C 11,7 C 11,1 C 59 % 1032,9 hPa 0,0 l/m 0 min 0 min 33 W/m 6,4 km/h (2 Bft) 97,87 %
12.05.2019 19:46 13,4 C 11,7 C 11,1 C 60 % 1032,9 hPa 0,0 l/m 0 min 0 min 42 W/m 6,4 km/h (2 Bft) 95,74 %
12.05.2019 19:48 13,3 C 11,7 C 11,1 C 60 % 1032,8 hPa 0,0 l/m 0 min 0 min 39 W/m 9,7 km/h (2 Bft) 95,74 %
12.05.2019 19:50 13,2 C 11,7 C 11,1 C 60 % 1032,8 hPa 0,0 l/m 0 min 0 min 32 W/m 6,4 km/h (2 Bft) 93,62 %
12.05.2019 19:52 13,2 C 11,7 C 10,6 C 61 % 1032,8 hPa 0,0 l/m 0 min 0 min 37 W/m 9,7 km/h (2 Bft) 95,65 %
12.05.2019 19:54 13,1 C 11,7 C 10,6 C 61 % 1032,8 hPa 0,0 l/m 0 min 0 min 40 W/m 6,4 km/h (2 Bft) 95,74 %
12.05.2019 19:56 13,1 C 11,7 C 10,6 C 61 % 1032,8 hPa 0,0 l/m 0 min 0 min 39 W/m 3,2 km/h (1 Bft) 95,74 %
12.05.2019 19:58 13,0 C 11,7 C 10,6 C 62 % 1032,9 hPa 0,0 l/m 0 min 0 min 39 W/m 6,4 km/h (2 Bft) 93,62 %
12.05.2019 20:00 12,9 C 11,7 C 10,6 C 62 % 1032,9 hPa 0,0 l/m 0 min 0 min 37 W/m 6,4 km/h (2 Bft) 95,74 %
12.05.2019 20:02 12,9 C 11,7 C 10,6 C 62 % 1032,9 hPa 0,0 l/m 0 min 0 min 30 W/m 6,4 km/h (2 Bft) 93,62 %
12.05.2019 20:04 12,8 C 11,7 C 10,6 C 62 % 1033,0 hPa 0,0 l/m 0 min 0 min 30 W/m 9,7 km/h (2 Bft) 95,65 %
12.05.2019 20:06 12,8 C 11,7 C 10,6 C 62 % 1033,0 hPa 0,0 l/m 0 min 0 min 30 W/m 12,9 km/h (3 Bft) 95,74 %
12.05.2019 20:08 12,7 C 11,7 C 10,6 C 62 % 1033,0 hPa 0,0 l/m 0 min 0 min 31 W/m 3,2 km/h (1 Bft) 95,74 %
12.05.2019 20:10 12,7 C 11,1 C 10,6 C 62 % 1033,0 hPa 0,0 l/m 0 min 0 min 30 W/m 6,4 km/h (2 Bft) 95,74 %
12.05.2019 20:12 12,7 C 11,1 C 10,6 C 62 % 1033,1 hPa 0,0 l/m 0 min 0 min 30 W/m 12,9 km/h (3 Bft) 97,87 %
12.05.2019 20:14 12,6 C 11,1 C 10,6 C 62 % 1033,1 hPa 0,0 l/m 0 min 0 min 30 W/m 6,4 km/h (2 Bft) 93,62 %
12.05.2019 20:16 12,6 C 11,1 C 10,6 C 63 % 1033,1 hPa 0,0 l/m 0 min 0 min 30 W/m 6,4 km/h (2 Bft) 97,83 %
12.05.2019 20:18 12,5 C 11,1 C 10,6 C 63 % 1033,2 hPa 0,0 l/m 0 min 0 min 28 W/m 6,4 km/h (2 Bft) 97,87 %
12.05.2019 20:20 12,4 C 11,1 C 10,6 C 63 % 1033,2 hPa 0,0 l/m 0 min 0 min 28 W/m 6,4 km/h (2 Bft) 95,74 %
12.05.2019 20:22 12,4 C 11,1 C 10,6 C 63 % 1033,1 hPa 0,0 l/m 0 min 0 min 28 W/m 6,4 km/h (2 Bft) 97,87 %
12.05.2019 20:24 12,4 C 11,1 C 10,6 C 64 % 1033,1 hPa 0,0 l/m 0 min 0 min 27 W/m 3,2 km/h (1 Bft) 95,74 %
12.05.2019 20:26 12,3 C 11,1 C 10,6 C 64 % 1033,2 hPa 0,0 l/m 0 min 0 min 26 W/m 6,4 km/h (2 Bft) 97,87 %
12.05.2019 20:28 12,3 C 11,1 C 10,0 C 64 % 1033,1 hPa 0,0 l/m 0 min 0 min 24 W/m 3,2 km/h (1 Bft) 97,83 %
12.05.2019 20:30 12,3 C 10,6 C 10,0 C 64 % 1033,2 hPa 0,0 l/m 0 min 0 min 21 W/m 6,4 km/h (2 Bft) 95,74 %
12.05.2019 20:32 12,2 C 10,6 C 10,0 C 65 % 1033,2 hPa 0,0 l/m 0 min 0 min 19 W/m 6,4 km/h (2 Bft) 97,87 %
12.05.2019 20:34 12,2 C 10,6 C 10,0 C 65 % 1033,2 hPa 0,0 l/m 0 min 0 min 18 W/m 3,2 km/h (1 Bft) 97,87 %
12.05.2019 20:36 12,2 C 10,6 C 10,0 C 65 % 1033,3 hPa 0,0 l/m 0 min 0 min 17 W/m 9,7 km/h (2 Bft) 95,74 %
12.05.2019 20:38 12,1 C 10,6 C 10,0 C 65 % 1033,3 hPa 0,0 l/m 0 min 0 min 18 W/m 3,2 km/h (1 Bft) 95,74 %
12.05.2019 20:40 12,1 C 10,6 C 9,4 C 65 % 1033,3 hPa 0,0 l/m 0 min 0 min 18 W/m 6,4 km/h (2 Bft) 97,83 %
12.05.2019 20:42 12,0 C 10,6 C 9,4 C 65 % 1033,3 hPa 0,0 l/m 0 min 0 min 17 W/m 6,4 km/h (2 Bft) 97,87 %
12.05.2019 20:44 12,0 C 10,0 C 9,4 C 65 % 1033,3 hPa 0,0 l/m 0 min 0 min 16 W/m 6,4 km/h (2 Bft) 97,87 %
12.05.2019 20:46 11,9 C 10,0 C 9,4 C 65 % 1033,3 hPa 0,0 l/m 0 min 0 min 16 W/m 6,4 km/h (2 Bft) 100,00 %
12.05.2019 20:48 11,9 C 10,0 C 9,4 C 66 % 1033,3 hPa 0,0 l/m 0 min 0 min 16 W/m 3,2 km/h (1 Bft) 100,00 %
12.05.2019 20:50 11,9 C 10,0 C 9,4 C 66 % 1033,3 hPa 0,0 l/m 0 min 0 min 16 W/m 6,4 km/h (2 Bft) 97,83 %
12.05.2019 20:52 11,8 C 10,0 C 9,4 C 66 % 1033,3 hPa 0,0 l/m 0 min 0 min 16 W/m 6,4 km/h (2 Bft) 97,87 %
12.05.2019 20:54 11,8 C 10,0 C 9,4 C 66 % 1033,3 hPa 0,0 l/m 0 min 0 min 15 W/m 6,4 km/h (2 Bft) 100,00 %
12.05.2019 20:56 11,7 C 10,0 C 9,4 C 66 % 1033,4 hPa 0,0 l/m 0 min 0 min 14 W/m 6,4 km/h (2 Bft) 100,00 %
12.05.2019 20:58 11,7 C 10,0 C 9,4 C 67 % 1033,3 hPa 0,0 l/m 0 min 0 min 14 W/m 3,2 km/h (1 Bft) 95,74 %
12.05.2019 21:00 11,6 C 10,0 C 9,4 C 67 % 1033,3 hPa 0,0 l/m 0 min 0 min 14 W/m 6,4 km/h (2 Bft) 95,74 %
12.05.2019 21:02 11,6 C 10,0 C 9,4 C 67 % 1033,4 hPa 0,0 l/m 0 min 0 min 12 W/m 3,2 km/h (1 Bft) 97,83 %
12.05.2019 21:04 11,5 C 10,0 C 9,4 C 67 % 1033,3 hPa 0,0 l/m 0 min 0 min 11 W/m 6,4 km/h (2 Bft) 97,87 %
12.05.2019 21:06 11,4 C 10,0 C 9,4 C 68 % 1033,3 hPa 0,0 l/m 0 min 0 min 11 W/m 9,7 km/h (2 Bft) 97,87 %
12.05.2019 21:08 11,4 C 10,0 C 9,4 C 67 % 1033,3 hPa 0,0 l/m 0 min 0 min 9 W/m 9,7 km/h (2 Bft) 97,87 %
12.05.2019 21:10 11,3 C 10,0 C 9,4 C 67 % 1033,4 hPa 0,0 l/m 0 min 0 min 7 W/m 3,2 km/h (1 Bft) 95,74 %
12.05.2019 21:12 11,3 C 10,0 C 9,4 C 67 % 1033,4 hPa 0,0 l/m 0 min 0 min 5 W/m 9,7 km/h (2 Bft) 97,87 %
12.05.2019 21:14 11,3 C 10,0 C 9,4 C 67 % 1033,5 hPa 0,0 l/m 0 min 0 min 5 W/m 9,7 km/h (2 Bft) 91,30 %
12.05.2019 21:16 11,2 C 10,0 C 9,4 C 67 % 1033,4 hPa 0,0 l/m 0 min 0 min 0 W/m 9,7 km/h (2 Bft) 97,87 %
12.05.2019 21:18 11,2 C 10,0 C 9,4 C 67 % 1033,5 hPa 0,0 l/m 0 min 0 min 0 W/m 3,2 km/h (1 Bft) 95,74 %
12.05.2019 21:20 11,2 C 10,0 C 9,4 C 67 % 1033,6 hPa 0,0 l/m 0 min 0 min 0 W/m 9,7 km/h (2 Bft) 95,74 %
12.05.2019 21:22 11,1 C 10,0 C 9,4 C 67 % 1033,7 hPa 0,0 l/m 0 min 0 min 0 W/m 9,7 km/h (2 Bft) 97,87 %
12.05.2019 21:24 11,1 C 10,0 C 9,4 C 67 % 1033,7 hPa 0,0 l/m 0 min 0 min 0 W/m 6,4 km/h (2 Bft) 97,87 %
12.05.2019 21:26 11,1 C 10,0 C 9,4 C 67 % 1033,6 hPa 0,0 l/m 0 min 0 min 0 W/m 6,4 km/h (2 Bft) 97,83 %
12.05.2019 21:28 11,0 C 9,4 C 8,9 C 67 % 1033,7 hPa 0,0 l/m 0 min 0 min 0 W/m 6,4 km/h (2 Bft) 97,87 %
12.05.2019 21:30 11,0 C 10,0 C 8,9 C 67 % 1033,6 hPa 0,0 l/m 0 min 0 min 0 W/m 9,7 km/h (2 Bft) 95,74 %
12.05.2019 21:32 10,9 C 9,4 C 8,9 C 67 % 1033,7 hPa 0,0 l/m 0 min 0 min 0 W/m 9,7 km/h (2 Bft) 97,87 %
12.05.2019 21:34 10,9 C 9,4 C 8,9 C 67 % 1033,7 hPa 0,0 l/m 0 min 0 min 0 W/m 6,4 km/h (2 Bft) 97,87 %
12.05.2019 21:36 10,9 C 9,4 C 8,9 C 67 % 1033,7 hPa 0,0 l/m 0 min 0 min 0 W/m 6,4 km/h (2 Bft) 97,87 %
12.05.2019 21:38 10,8 C 9,4 C 8,9 C 67 % 1033,8 hPa 0,0 l/m 0 min 0 min 0 W/m 12,9 km/h (3 Bft) 97,83 %
12.05.2019 21:40 10,8 C 9,4 C 8,9 C 67 % 1033,8 hPa 0,0 l/m 0 min 0 min 0 W/m 6,4 km/h (2 Bft) 97,87 %
12.05.2019 21:42 10,8 C 9,4 C 8,9 C 67 % 1033,8 hPa 0,0 l/m 0 min 0 min 0 W/m 6,4 km/h (2 Bft) 100,00 %
12.05.2019 21:44 10,7 C 9,4 C 8,9 C 67 % 1033,8 hPa 0,0 l/m 0 min 0 min 0 W/m 6,4 km/h (2 Bft) 100,00 %
12.05.2019 21:46 10,7 C 9,4 C 8,9 C 67 % 1033,8 hPa 0,0 l/m 0 min 0 min 0 W/m 12,9 km/h (3 Bft) 97,87 %
12.05.2019 21:48 10,7 C 9,4 C 8,9 C 68 % 1033,9 hPa 0,0 l/m 0 min 0 min 0 W/m 6,4 km/h (2 Bft) 100,00 %
12.05.2019 21:50 10,7 C 9,4 C 8,9 C 68 % 1033,8 hPa 0,0 l/m 0 min 0 min 0 W/m 12,9 km/h (3 Bft) 97,83 %
12.05.2019 21:52 10,6 C 9,4 C 8,9 C 68 % 1033,8 hPa 0,0 l/m 0 min 0 min 0 W/m 6,4 km/h (2 Bft) 97,87 %
12.05.2019 21:54 10,6 C 9,4 C 8,9 C 68 % 1033,9 hPa 0,0 l/m 0 min 0 min 0 W/m 9,7 km/h (2 Bft) 97,87 %
12.05.2019 21:56 10,6 C 9,4 C 8,9 C 68 % 1033,9 hPa 0,0 l/m 0 min 0 min 0 W/m 6,4 km/h (2 Bft) 100,00 %
12.05.2019 21:58 10,6 C 8,9 C 8,9 C 68 % 1033,9 hPa 0,0 l/m 0 min 0 min 0 W/m 6,4 km/h (2 Bft) 100,00 %
12.05.2019 22:00 10,5 C 8,9 C 8,3 C 68 % 1034,0 hPa 0,0 l/m 0 min 0 min 0 W/m 6,4 km/h (2 Bft) 100,00 %
12.05.2019 22:02 10,5 C 8,9 C 8,3 C 69 % 1034,0 hPa 0,0 l/m 0 min 0 min 0 W/m 3,2 km/h (1 Bft) 100,00 %
12.05.2019 22:04 10,4 C 8,9 C 8,3 C 69 % 1034,0 hPa 0,0 l/m 0 min 0 min 0 W/m 6,4 km/h (2 Bft) 100,00 %
12.05.2019 22:06 10,4 C 8,9 C 8,3 C 69 % 1034,1 hPa 0,0 l/m 0 min 0 min 0 W/m 6,4 km/h (2 Bft) 97,87 %
12.05.2019 22:08 10,4 C 8,9 C 8,3 C 69 % 1034,1 hPa 0,0 l/m 0 min 0 min 0 W/m 6,4 km/h (2 Bft) 100,00 %
12.05.2019 22:10 10,4 C 8,9 C 8,3 C 69 % 1034,1 hPa 0,0 l/m 0 min 0 min 0 W/m 6,4 km/h (2 Bft) 100,00 %
12.05.2019 22:12 10,3 C 8,9 C 8,3 C 69 % 1034,1 hPa 0,0 l/m 0 min 0 min 0 W/m 6,4 km/h (2 Bft) 100,00 %
12.05.2019 22:14 10,3 C 8,9 C 8,3 C 69 % 1034,2 hPa 0,0 l/m 0 min 0 min 0 W/m 9,7 km/h (2 Bft) 100,00 %
12.05.2019 22:16 10,2 C 8,9 C 8,3 C 70 % 1034,2 hPa 0,0 l/m 0 min 0 min 0 W/m 6,4 km/h (2 Bft) 100,00 %
12.05.2019 22:18 10,2 C 8,9 C 8,3 C 70 % 1034,2 hPa 0,0 l/m 0 min 0 min 0 W/m 6,4 km/h (2 Bft) 100,00 %
12.05.2019 22:20 10,2 C 8,3 C 8,3 C 70 % 1034,2 hPa 0,0 l/m 0 min 0 min 0 W/m 6,4 km/h (2 Bft) 100,00 %
12.05.2019 22:22 10,2 C 8,3 C 7,8 C 70 % 1034,2 hPa 0,0 l/m 0 min 0 min 0 W/m 6,4 km/h (2 Bft) 100,00 %
12.05.2019 22:24 10,1 C 8,3 C 7,8 C 70 % 1034,3 hPa 0,0 l/m 0 min 0 min 0 W/m 6,4 km/h (2 Bft) 100,00 %
12.05.2019 22:26 10,1 C 8,3 C 7,8 C 70 % 1034,3 hPa 0,0 l/m 0 min 0 min 0 W/m 6,4 km/h (2 Bft) 100,00 %
12.05.2019 22:28 10,0 C 8,3 C 7,8 C 71 % 1034,3 hPa 0,0 l/m 0 min 0 min 0 W/m 9,7 km/h (2 Bft) 100,00 %
12.05.2019 22:30 10,0 C 8,3 C 7,8 C 71 % 1034,3 hPa 0,0 l/m 0 min 0 min 0 W/m 12,9 km/h (3 Bft) 97,87 %
12.05.2019 22:32 9,9 C 8,3 C 7,8 C 71 % 1034,4 hPa 0,0 l/m 0 min 0 min 0 W/m 6,4 km/h (2 Bft) 100,00 %
12.05.2019 22:34 9,9 C 8,3 C 7,8 C 71 % 1034,4 hPa 0,0 l/m 0 min 0 min 0 W/m 6,4 km/h (2 Bft) 97,87 %
12.05.2019 22:36 9,8 C 8,3 C 7,8 C 71 % 1034,4 hPa 0,0 l/m 0 min 0 min 0 W/m 6,4 km/h (2 Bft) 97,83 %
12.05.2019 22:38 9,8 C 8,3 C 7,8 C 71 % 1034,4 hPa 0,0 l/m 0 min 0 min 0 W/m 6,4 km/h (2 Bft) 97,87 %
12.05.2019 22:40 9,8 C 8,3 C 7,8 C 70 % 1034,4 hPa 0,0 l/m 0 min 0 min 0 W/m 9,7 km/h (2 Bft) 95,74 %
12.05.2019 22:42 9,7 C 8,3 C 7,8 C 71 % 1034,4 hPa 0,0 l/m 0 min 0 min 0 W/m 6,4 km/h (2 Bft) 97,87 %
12.05.2019 22:44 9,7 C 8,3 C 7,8 C 71 % 1034,4 hPa 0,0 l/m 0 min 0 min 0 W/m 6,4 km/h (2 Bft) 97,87 %
12.05.2019 22:46 9,7 C 8,3 C 7,8 C 71 % 1034,5 hPa 0,0 l/m 0 min 0 min 0 W/m 6,4 km/h (2 Bft) 97,87 %
12.05.2019 22:48 9,6 C 8,3 C 7,8 C 71 % 1034,5 hPa 0,0 l/m 0 min 0 min 0 W/m 6,4 km/h (2 Bft) 97,83 %
12.05.2019 22:50 9,6 C 8,3 C 7,8 C 70 % 1034,6 hPa 0,0 l/m 0 min 0 min 0 W/m 12,9 km/h (3 Bft) 97,87 %
12.05.2019 22:52 9,6 C 8,3 C 7,8 C 70 % 1034,6 hPa 0,0 l/m 0 min 0 min 0 W/m 6,4 km/h (2 Bft) 95,74 %
12.05.2019 22:54 9,6 C 8,3 C 7,8 C 70 % 1034,6 hPa 0,0 l/m 0 min 0 min 0 W/m 6,4 km/h (2 Bft) 97,87 %
12.05.2019 22:56 9,5 C 8,3 C 7,8 C 70 % 1034,6 hPa 0,0 l/m 0 min 0 min 0 W/m 6,4 km/h (2 Bft) 97,87 %
12.05.2019 22:58 9,5 C 8,3 C 7,8 C 71 % 1034,7 hPa 0,0 l/m 0 min 0 min 0 W/m 6,4 km/h (2 Bft) 97,87 %
12.05.2019 23:00 9,5 C 8,3 C 7,8 C 71 % 1034,6 hPa 0,0 l/m 0 min 0 min 0 W/m 6,4 km/h (2 Bft) 95,65 %
12.05.2019 23:02 9,4 C 8,3 C 7,8 C 71 % 1034,6 hPa 0,0 l/m 0 min 0 min 0 W/m 9,7 km/h (2 Bft) 95,74 %
12.05.2019 23:04 9,4 C 8,3 C 7,8 C 71 % 1034,6 hPa 0,0 l/m 0 min 0 min 0 W/m 9,7 km/h (2 Bft) 97,87 %
12.05.2019 23:06 9,4 C 8,3 C 7,8 C 71 % 1034,6 hPa 0,0 l/m 0 min 0 min 0 W/m 3,2 km/h (1 Bft) 95,74 %
12.05.2019 23:08 9,4 C 8,3 C 7,8 C 71 % 1034,6 hPa 0,0 l/m 0 min 0 min 0 W/m 6,4 km/h (2 Bft) 95,74 %
12.05.2019 23:10 9,4 C 8,3 C 7,8 C 71 % 1034,6 hPa 0,0 l/m 0 min 0 min 0 W/m 9,7 km/h (2 Bft) 95,74 %
12.05.2019 23:12 9,4 C 8,3 C 7,8 C 70 % 1034,7 hPa 0,0 l/m 0 min 0 min 0 W/m 9,7 km/h (2 Bft) 97,83 %
12.05.2019 23:14 9,3 C 8,3 C 7,8 C 70 % 1034,7 hPa 0,0 l/m 0 min 0 min 0 W/m 9,7 km/h (2 Bft) 95,74 %
12.05.2019 23:16 9,3 C 8,3 C 7,8 C 70 % 1034,7 hPa 0,0 l/m 0 min 0 min 0 W/m 9,7 km/h (2 Bft) 95,74 %
12.05.2019 23:18 9,3 C 8,3 C 7,8 C 70 % 1034,7 hPa 0,0 l/m 0 min 0 min 0 W/m 9,7 km/h (2 Bft) 97,87 %
12.05.2019 23:20 9,3 C 8,3 C 7,8 C 70 % 1034,7 hPa 0,0 l/m 0 min 0 min 0 W/m 6,4 km/h (2 Bft) 95,74 %
12.05.2019 23:22 9,3 C 8,3 C 7,8 C 70 % 1034,7 hPa 0,0 l/m 0 min 0 min 0 W/m 6,4 km/h (2 Bft) 93,48 %
12.05.2019 23:24 9,3 C 8,3 C 7,8 C 70 % 1034,8 hPa 0,0 l/m 0 min 0 min 0 W/m 9,7 km/h (2 Bft) 95,74 %
12.05.2019 23:26 9,3 C 8,3 C 7,8 C 70 % 1034,8 hPa 0,0 l/m 0 min 0 min 0 W/m 6,4 km/h (2 Bft) 95,74 %
12.05.2019 23:28 9,3 C 8,3 C 7,8 C 70 % 1034,8 hPa 0,0 l/m 0 min 0 min 0 W/m 6,4 km/h (2 Bft) 95,74 %
12.05.2019 23:30 9,3 C 8,3 C 7,8 C 70 % 1034,8 hPa 0,0 l/m 0 min 0 min 0 W/m 6,4 km/h (2 Bft) 97,87 %
12.05.2019 23:32 9,3 C 8,3 C 7,8 C 70 % 1034,8 hPa 0,0 l/m 0 min 0 min 0 W/m 6,4 km/h (2 Bft) 97,87 %
12.05.2019 23:34 9,2 C 8,3 C 7,8 C 70 % 1034,9 hPa 0,0 l/m 0 min 0 min 0 W/m 6,4 km/h (2 Bft) 95,65 %
12.05.2019 23:36 9,2 C 8,3 C 7,8 C 70 % 1034,8 hPa 0,0 l/m 0 min 0 min 0 W/m 9,7 km/h (2 Bft) 97,87 %
12.05.2019 23:38 9,2 C 8,3 C 7,8 C 70 % 1034,9 hPa 0,0 l/m 0 min 0 min 0 W/m 9,7 km/h (2 Bft) 95,74 %
12.05.2019 23:40 9,2 C 8,3 C 7,8 C 70 % 1034,9 hPa 0,0 l/m 0 min 0 min 0 W/m 6,4 km/h (2 Bft) 97,87 %
12.05.2019 23:42 9,2 C 7,8 C 7,8 C 71 % 1035,0 hPa 0,0 l/m 0 min 0 min 0 W/m 6,4 km/h (2 Bft) 97,87 %
12.05.2019 23:44 9,2 C 7,8 C 7,8 C 71 % 1035,0 hPa 0,0 l/m 0 min 0 min 0 W/m 3,2 km/h (1 Bft) 93,62 %
12.05.2019 23:46 9,2 C 7,8 C 7,2 C 71 % 1035,1 hPa 0,0 l/m 0 min 0 min 0 W/m 6,4 km/h (2 Bft) 93,48 %
12.05.2019 23:48 9,2 C 7,8 C 7,2 C 71 % 1035,0 hPa 0,0 l/m 0 min 0 min 0 W/m 3,2 km/h (1 Bft) 97,87 %
12.05.2019 23:50 9,1 C 7,8 C 7,2 C 71 % 1035,0 hPa 0,0 l/m 0 min 0 min 0 W/m 3,2 km/h (1 Bft) 100,00 %
12.05.2019 23:52 9,1 C 7,8 C 7,2 C 71 % 1034,9 hPa 0,0 l/m 0 min 0 min 0 W/m 3,2 km/h (1 Bft) 100,00 %
12.05.2019 23:54 9,1 C 7,8 C 7,2 C 71 % 1035,0 hPa 0,0 l/m 0 min 0 min 0 W/m 6,4 km/h (2 Bft) 97,87 %
12.05.2019 23:56 9,1 C 7,8 C 7,2 C 71 % 1035,1 hPa 0,0 l/m 0 min 0 min 0 W/m 6,4 km/h (2 Bft) 97,87 %
12.05.2019 23:58 9,0 C 7,2 C 6,7 C 71 % 1035,1 hPa 0,0 l/m 0 min 0 min 0 W/m 6,4 km/h (2 Bft) 97,83 %
_ Min-Zeit 04:10 03:22 02:42 14:30 00:02 - - - - 01:30 05:02
Minimum _ 4,5 C 3,3 C 3,3 C 50 % 1022,9 hPa - - - - 0,0 km/h (0 Bft) 89,36 %
_ Max-Zeit 17:28 12:28 12:40 07:42 23:46 00:00 11:15 00:00 13:08 16:42 00:08
Maximum _ 17,7 C 25,6 C 27,2 C 91 % 1035,1 hPa 0,0 l/m 5 min 0 min 1149 W/m 35,4 km/h
W-NW (5 Bft)
100,00 %
Durchschnitt _ 10,7 C 11,9 C 11,4 C 70 % 1030,1 hPa #0,0 l/m #5:59 h #0 min. 390 W/m 9,6 km/h (2 Bft) 97,88 %
© 2019 W. Hausmann